<?xml version="1.0" encoding="UTF-8" standalone="no" ?>
<gpx xmlns="http://www.topografix.com/GPX/1/1" xmlns:xsi="http://www.w3.org/2001/XMLSchema-instance" xsi:schemaLocation="http://www.topografix.com/GPX/1/1 http://www.topografix.com/GPX/1/1/gpx.xsd" version="1.1" creator="VisuGPX - https://www.visugpx.com">
  <metadata>
    <name>MaringueAiguepercPrompsa</name>
  </metadata>
  <wpt lat="45.88459" lon="3.13107">
    <ele>333</ele>
  </wpt>
  <wpt lat="45.88466" lon="3.1386">
    <ele>331</ele>
  </wpt>
  <trk>
    <name><![CDATA[MaringueAiguepercPrompsa]]></name>
    <trkseg>
      <trkpt lat="45.88407" lon="3.13199">
        <ele>331.1</ele>
      </trkpt>
      <trkpt lat="45.88462" lon="3.13331">
        <ele>334</ele>
      </trkpt>
      <trkpt lat="45.88474" lon="3.13348">
        <ele>334</ele>
      </trkpt>
      <trkpt lat="45.88519" lon="3.13336">
        <ele>334.1</ele>
      </trkpt>
      <trkpt lat="45.88529" lon="3.13338">
        <ele>334.2</ele>
      </trkpt>
      <trkpt lat="45.88556" lon="3.13358">
        <ele>335</ele>
      </trkpt>
      <trkpt lat="45.88574" lon="3.13375">
        <ele>334.3</ele>
      </trkpt>
      <trkpt lat="45.88615" lon="3.13358">
        <ele>335</ele>
      </trkpt>
      <trkpt lat="45.88646" lon="3.13338">
        <ele>334.1</ele>
      </trkpt>
      <trkpt lat="45.88653" lon="3.13358">
        <ele>334.4</ele>
      </trkpt>
      <trkpt lat="45.88665" lon="3.13379">
        <ele>334.1</ele>
      </trkpt>
      <trkpt lat="45.88681" lon="3.13391">
        <ele>334.5</ele>
      </trkpt>
      <trkpt lat="45.88698" lon="3.13397">
        <ele>335</ele>
      </trkpt>
      <trkpt lat="45.88741" lon="3.13385">
        <ele>334.4</ele>
      </trkpt>
      <trkpt lat="45.8876" lon="3.13459">
        <ele>332.6</ele>
      </trkpt>
      <trkpt lat="45.88785" lon="3.13492">
        <ele>330.6</ele>
      </trkpt>
      <trkpt lat="45.88803" lon="3.13504">
        <ele>329</ele>
      </trkpt>
      <trkpt lat="45.88865" lon="3.13532">
        <ele>326.9</ele>
      </trkpt>
      <trkpt lat="45.88918" lon="3.13538">
        <ele>326.6</ele>
      </trkpt>
      <trkpt lat="45.88939" lon="3.13551">
        <ele>326.2</ele>
      </trkpt>
      <trkpt lat="45.88952" lon="3.13584">
        <ele>326</ele>
      </trkpt>
      <trkpt lat="45.88974" lon="3.13591">
        <ele>325.7</ele>
      </trkpt>
      <trkpt lat="45.88993" lon="3.13576">
        <ele>326.1</ele>
      </trkpt>
      <trkpt lat="45.88998" lon="3.13565">
        <ele>326</ele>
      </trkpt>
      <trkpt lat="45.8903" lon="3.13567">
        <ele>326.2</ele>
      </trkpt>
      <trkpt lat="45.89081" lon="3.13584">
        <ele>325</ele>
      </trkpt>
      <trkpt lat="45.8911" lon="3.13608">
        <ele>325.1</ele>
      </trkpt>
      <trkpt lat="45.89142" lon="3.13658">
        <ele>325</ele>
      </trkpt>
      <trkpt lat="45.89152" lon="3.13677">
        <ele>324.8</ele>
      </trkpt>
      <trkpt lat="45.89153" lon="3.13685">
        <ele>324.7</ele>
      </trkpt>
      <trkpt lat="45.89158" lon="3.13683">
        <ele>324.8</ele>
      </trkpt>
      <trkpt lat="45.89232" lon="3.13756">
        <ele>325.3</ele>
      </trkpt>
      <trkpt lat="45.8929" lon="3.13814">
        <ele>326</ele>
      </trkpt>
      <trkpt lat="45.89298" lon="3.13814">
        <ele>326</ele>
        <time>2022-07-25T18:57:00Z</time>
      </trkpt>
      <trkpt lat="45.89315" lon="3.1381">
        <ele>323</ele>
        <time>2022-07-25T18:57:03Z</time>
      </trkpt>
      <trkpt lat="45.89384" lon="3.13767">
        <ele>324</ele>
        <time>2022-07-25T18:57:16Z</time>
      </trkpt>
      <trkpt lat="45.89444" lon="3.13711">
        <ele>324</ele>
        <time>2022-07-25T18:57:29Z</time>
      </trkpt>
      <trkpt lat="45.89478" lon="3.13703">
        <ele>324</ele>
        <time>2022-07-25T18:57:35Z</time>
      </trkpt>
      <trkpt lat="45.89521" lon="3.13711">
        <ele>323</ele>
        <time>2022-07-25T18:57:43Z</time>
      </trkpt>
      <trkpt lat="45.8953" lon="3.1372">
        <ele>323</ele>
        <time>2022-07-25T18:57:45Z</time>
      </trkpt>
      <trkpt lat="45.89551" lon="3.1372">
        <ele>322</ele>
        <time>2022-07-25T18:57:49Z</time>
      </trkpt>
      <trkpt lat="45.8956" lon="3.13703">
        <ele>322</ele>
        <time>2022-07-25T18:57:51Z</time>
      </trkpt>
      <trkpt lat="45.89569" lon="3.13694">
        <ele>322</ele>
        <time>2022-07-25T18:57:53Z</time>
      </trkpt>
      <trkpt lat="45.89603" lon="3.13694">
        <ele>322</ele>
        <time>2022-07-25T18:57:59Z</time>
      </trkpt>
      <trkpt lat="45.89732" lon="3.13707">
        <ele>321</ele>
        <time>2022-07-25T18:58:22Z</time>
      </trkpt>
      <trkpt lat="45.8974" lon="3.13698">
        <ele>321</ele>
        <time>2022-07-25T18:58:24Z</time>
      </trkpt>
      <trkpt lat="45.89766" lon="3.1363">
        <ele>322</ele>
        <time>2022-07-25T18:58:34Z</time>
      </trkpt>
      <trkpt lat="45.89779" lon="3.13617">
        <ele>322</ele>
        <time>2022-07-25T18:58:36Z</time>
      </trkpt>
      <trkpt lat="45.89839" lon="3.13698">
        <ele>322</ele>
        <time>2022-07-25T18:58:51Z</time>
      </trkpt>
      <trkpt lat="45.89895" lon="3.13767">
        <ele>320</ele>
        <time>2022-07-25T18:59:04Z</time>
      </trkpt>
      <trkpt lat="45.89925" lon="3.1381">
        <ele>320</ele>
        <time>2022-07-25T18:59:12Z</time>
      </trkpt>
      <trkpt lat="45.90062" lon="3.14037">
        <ele>320</ele>
        <time>2022-07-25T18:59:49Z</time>
      </trkpt>
      <trkpt lat="45.90071" lon="3.14063">
        <ele>320</ele>
        <time>2022-07-25T18:59:53Z</time>
      </trkpt>
      <trkpt lat="45.90079" lon="3.14097">
        <ele>320</ele>
        <time>2022-07-25T18:59:57Z</time>
      </trkpt>
      <trkpt lat="45.90084" lon="3.14282">
        <ele>319</ele>
        <time>2022-07-25T19:00:20Z</time>
      </trkpt>
      <trkpt lat="45.90062" lon="3.14479">
        <ele>317</ele>
        <time>2022-07-25T19:00:45Z</time>
      </trkpt>
      <trkpt lat="45.90066" lon="3.14531">
        <ele>316</ele>
        <time>2022-07-25T19:00:51Z</time>
      </trkpt>
      <trkpt lat="45.90084" lon="3.146">
        <ele>314</ele>
        <time>2022-07-25T19:01:00Z</time>
      </trkpt>
      <trkpt lat="45.90105" lon="3.1496">
        <ele>316</ele>
        <time>2022-07-25T19:01:45Z</time>
      </trkpt>
      <trkpt lat="45.90096" lon="3.15067">
        <ele>317</ele>
        <time>2022-07-25T19:01:58Z</time>
      </trkpt>
      <trkpt lat="45.90092" lon="3.15222">
        <ele>317</ele>
        <time>2022-07-25T19:02:18Z</time>
      </trkpt>
      <trkpt lat="45.90054" lon="3.15419">
        <ele>319</ele>
        <time>2022-07-25T19:02:43Z</time>
      </trkpt>
      <trkpt lat="45.90049" lon="3.15428">
        <ele>319</ele>
        <time>2022-07-25T19:02:44Z</time>
      </trkpt>
      <trkpt lat="45.90036" lon="3.15479">
        <ele>318</ele>
        <time>2022-07-25T19:02:51Z</time>
      </trkpt>
      <trkpt lat="45.90024" lon="3.15599">
        <ele>315</ele>
        <time>2022-07-25T19:03:06Z</time>
      </trkpt>
      <trkpt lat="45.90019" lon="3.15741">
        <ele>316</ele>
        <time>2022-07-25T19:03:24Z</time>
      </trkpt>
      <trkpt lat="45.90028" lon="3.15874">
        <ele>315</ele>
        <time>2022-07-25T19:03:40Z</time>
      </trkpt>
      <trkpt lat="45.90024" lon="3.15926">
        <ele>316</ele>
        <time>2022-07-25T19:03:47Z</time>
      </trkpt>
      <trkpt lat="45.89989" lon="3.1605">
        <ele>315</ele>
        <time>2022-07-25T19:04:03Z</time>
      </trkpt>
      <trkpt lat="45.89972" lon="3.1608">
        <ele>315</ele>
        <time>2022-07-25T19:04:08Z</time>
      </trkpt>
      <trkpt lat="45.89912" lon="3.16123">
        <ele>315</ele>
        <time>2022-07-25T19:04:20Z</time>
      </trkpt>
      <trkpt lat="45.89843" lon="3.16355">
        <ele>317</ele>
        <time>2022-07-25T19:04:51Z</time>
      </trkpt>
      <trkpt lat="45.89818" lon="3.16462">
        <ele>317</ele>
        <time>2022-07-25T19:05:05Z</time>
      </trkpt>
      <trkpt lat="45.89813" lon="3.16526">
        <ele>316</ele>
        <time>2022-07-25T19:05:13Z</time>
      </trkpt>
      <trkpt lat="45.89818" lon="3.16604">
        <ele>316</ele>
        <time>2022-07-25T19:05:23Z</time>
      </trkpt>
      <trkpt lat="45.89826" lon="3.16642">
        <ele>316</ele>
        <time>2022-07-25T19:05:28Z</time>
      </trkpt>
      <trkpt lat="45.89826" lon="3.16685">
        <ele>316</ele>
        <time>2022-07-25T19:05:33Z</time>
      </trkpt>
      <trkpt lat="45.89809" lon="3.16797">
        <ele>315</ele>
        <time>2022-07-25T19:05:47Z</time>
      </trkpt>
      <trkpt lat="45.89809" lon="3.16917">
        <ele>316</ele>
        <time>2022-07-25T19:06:02Z</time>
      </trkpt>
      <trkpt lat="45.89818" lon="3.17033">
        <ele>315</ele>
        <time>2022-07-25T19:06:17Z</time>
      </trkpt>
      <trkpt lat="45.89792" lon="3.17187">
        <ele>314</ele>
        <time>2022-07-25T19:06:36Z</time>
      </trkpt>
      <trkpt lat="45.89783" lon="3.17325">
        <ele>314</ele>
        <time>2022-07-25T19:06:53Z</time>
      </trkpt>
      <trkpt lat="45.89766" lon="3.17492">
        <ele>313</ele>
        <time>2022-07-25T19:07:14Z</time>
      </trkpt>
      <trkpt lat="45.89757" lon="3.17612">
        <ele>313</ele>
        <time>2022-07-25T19:07:29Z</time>
      </trkpt>
      <trkpt lat="45.89757" lon="3.17728">
        <ele>314</ele>
        <time>2022-07-25T19:07:44Z</time>
      </trkpt>
      <trkpt lat="45.89775" lon="3.17861">
        <ele>315</ele>
        <time>2022-07-25T19:08:00Z</time>
      </trkpt>
      <trkpt lat="45.89783" lon="3.17887">
        <ele>315</ele>
        <time>2022-07-25T19:08:04Z</time>
      </trkpt>
      <trkpt lat="45.89869" lon="3.18724">
        <ele>314</ele>
        <time>2022-07-25T19:09:49Z</time>
      </trkpt>
      <trkpt lat="45.89848" lon="3.18908">
        <ele>313</ele>
        <time>2022-07-25T19:10:12Z</time>
      </trkpt>
      <trkpt lat="45.89822" lon="3.19106">
        <ele>315</ele>
        <time>2022-07-25T19:10:37Z</time>
      </trkpt>
      <trkpt lat="45.89835" lon="3.19183">
        <ele>314</ele>
        <time>2022-07-25T19:10:46Z</time>
      </trkpt>
      <trkpt lat="45.89826" lon="3.19479">
        <ele>311</ele>
        <time>2022-07-25T19:11:23Z</time>
      </trkpt>
      <trkpt lat="45.89835" lon="3.19771">
        <ele>311</ele>
        <time>2022-07-25T19:11:59Z</time>
      </trkpt>
      <trkpt lat="45.89813" lon="3.20256">
        <ele>311</ele>
        <time>2022-07-25T19:13:00Z</time>
      </trkpt>
      <trkpt lat="45.89775" lon="3.20732">
        <ele>311</ele>
        <time>2022-07-25T19:13:59Z</time>
      </trkpt>
      <trkpt lat="45.8977" lon="3.2102">
        <ele>310</ele>
        <time>2022-07-25T19:14:35Z</time>
      </trkpt>
      <trkpt lat="45.89779" lon="3.21131">
        <ele>311</ele>
        <time>2022-07-25T19:14:48Z</time>
      </trkpt>
      <trkpt lat="45.89809" lon="3.21256">
        <ele>311</ele>
        <time>2022-07-25T19:15:05Z</time>
      </trkpt>
      <trkpt lat="45.89805" lon="3.21273">
        <ele>311</ele>
        <time>2022-07-25T19:15:07Z</time>
      </trkpt>
      <trkpt lat="45.898" lon="3.21329">
        <ele>311</ele>
        <time>2022-07-25T19:15:14Z</time>
      </trkpt>
      <trkpt lat="45.89787" lon="3.21397">
        <ele>312</ele>
        <time>2022-07-25T19:15:23Z</time>
      </trkpt>
      <trkpt lat="45.89779" lon="3.21432">
        <ele>312</ele>
        <time>2022-07-25T19:15:27Z</time>
      </trkpt>
      <trkpt lat="45.8977" lon="3.21445">
        <ele>312</ele>
        <time>2022-07-25T19:15:30Z</time>
      </trkpt>
      <trkpt lat="45.89805" lon="3.21513">
        <ele>312</ele>
        <time>2022-07-25T19:15:40Z</time>
      </trkpt>
      <trkpt lat="45.89835" lon="3.21616">
        <ele>313</ele>
        <time>2022-07-25T19:15:54Z</time>
      </trkpt>
      <trkpt lat="45.89843" lon="3.21681">
        <ele>313</ele>
        <time>2022-07-25T19:16:02Z</time>
      </trkpt>
      <trkpt lat="45.89843" lon="3.21771">
        <ele>313</ele>
        <time>2022-07-25T19:16:13Z</time>
      </trkpt>
      <trkpt lat="45.89818" lon="3.21899">
        <ele>314</ele>
        <time>2022-07-25T19:16:30Z</time>
      </trkpt>
      <trkpt lat="45.898" lon="3.21964">
        <ele>316</ele>
        <time>2022-07-25T19:16:38Z</time>
      </trkpt>
      <trkpt lat="45.89865" lon="3.21998">
        <ele>315</ele>
        <time>2022-07-25T19:16:51Z</time>
      </trkpt>
      <trkpt lat="45.89916" lon="3.22011">
        <ele>313</ele>
        <time>2022-07-25T19:17:00Z</time>
      </trkpt>
      <trkpt lat="45.89942" lon="3.22045">
        <ele>313</ele>
        <time>2022-07-25T19:17:06Z</time>
      </trkpt>
      <trkpt lat="45.89955" lon="3.22067">
        <ele>313</ele>
        <time>2022-07-25T19:17:10Z</time>
      </trkpt>
      <trkpt lat="45.89959" lon="3.2208">
        <ele>313</ele>
        <time>2022-07-25T19:17:11Z</time>
      </trkpt>
      <trkpt lat="45.89955" lon="3.22118">
        <ele>313</ele>
        <time>2022-07-25T19:17:16Z</time>
      </trkpt>
      <trkpt lat="45.89955" lon="3.22174">
        <ele>314</ele>
        <time>2022-07-25T19:17:23Z</time>
      </trkpt>
      <trkpt lat="45.89942" lon="3.22247">
        <ele>315</ele>
        <time>2022-07-25T19:17:32Z</time>
      </trkpt>
      <trkpt lat="45.89946" lon="3.22354">
        <ele>317</ele>
        <time>2022-07-25T19:17:46Z</time>
      </trkpt>
      <trkpt lat="45.89946" lon="3.22453">
        <ele>318</ele>
        <time>2022-07-25T19:17:58Z</time>
      </trkpt>
      <trkpt lat="45.89968" lon="3.22457">
        <ele>318</ele>
        <time>2022-07-25T19:18:02Z</time>
      </trkpt>
      <trkpt lat="45.90062" lon="3.2259">
        <ele>319</ele>
        <time>2022-07-25T19:18:25Z</time>
      </trkpt>
      <trkpt lat="45.90127" lon="3.22698">
        <ele>320</ele>
        <time>2022-07-25T19:18:43Z</time>
      </trkpt>
      <trkpt lat="45.90161" lon="3.22741">
        <ele>320</ele>
        <time>2022-07-25T19:18:51Z</time>
      </trkpt>
      <trkpt lat="45.90152" lon="3.22749">
        <ele>320</ele>
        <time>2022-07-25T19:18:53Z</time>
      </trkpt>
      <trkpt lat="45.90152" lon="3.22925">
        <ele>320</ele>
        <time>2022-07-25T19:19:15Z</time>
      </trkpt>
      <trkpt lat="45.90157" lon="3.23225">
        <ele>321</ele>
        <time>2022-07-25T19:19:52Z</time>
      </trkpt>
      <trkpt lat="45.90165" lon="3.23509">
        <ele>318</ele>
        <time>2022-07-25T19:20:27Z</time>
      </trkpt>
      <trkpt lat="45.90199" lon="3.23706">
        <ele>318</ele>
        <time>2022-07-25T19:20:52Z</time>
      </trkpt>
      <trkpt lat="45.90371" lon="3.24401">
        <ele>315</ele>
        <time>2022-07-25T19:22:24Z</time>
      </trkpt>
      <trkpt lat="45.90444" lon="3.24642">
        <ele>317</ele>
        <time>2022-07-25T19:22:56Z</time>
      </trkpt>
      <trkpt lat="45.90633" lon="3.25118">
        <ele>321</ele>
        <time>2022-07-25T19:24:04Z</time>
      </trkpt>
      <trkpt lat="45.90663" lon="3.25294">
        <ele>322</ele>
        <time>2022-07-25T19:24:26Z</time>
      </trkpt>
      <trkpt lat="45.90676" lon="3.25569">
        <ele>320</ele>
        <time>2022-07-25T19:25:01Z</time>
      </trkpt>
      <trkpt lat="45.9071" lon="3.25762">
        <ele>321</ele>
        <time>2022-07-25T19:25:25Z</time>
      </trkpt>
      <trkpt lat="45.90706" lon="3.26474">
        <ele>318</ele>
        <time>2022-07-25T19:26:53Z</time>
      </trkpt>
      <trkpt lat="45.90714" lon="3.26551">
        <ele>318</ele>
        <time>2022-07-25T19:27:03Z</time>
      </trkpt>
      <trkpt lat="45.90753" lon="3.26783">
        <ele>314</ele>
        <time>2022-07-25T19:27:33Z</time>
      </trkpt>
      <trkpt lat="45.90757" lon="3.26873">
        <ele>314</ele>
        <time>2022-07-25T19:27:44Z</time>
      </trkpt>
      <trkpt lat="45.90753" lon="3.26972">
        <ele>313</ele>
        <time>2022-07-25T19:27:56Z</time>
      </trkpt>
      <trkpt lat="45.90757" lon="3.27006">
        <ele>312</ele>
        <time>2022-07-25T19:28:00Z</time>
      </trkpt>
      <trkpt lat="45.9077" lon="3.27019">
        <ele>312</ele>
        <time>2022-07-25T19:28:03Z</time>
      </trkpt>
      <trkpt lat="45.90787" lon="3.27028">
        <ele>311</ele>
        <time>2022-07-25T19:28:06Z</time>
      </trkpt>
      <trkpt lat="45.90938" lon="3.27032">
        <ele>310</ele>
        <time>2022-07-25T19:28:33Z</time>
      </trkpt>
      <trkpt lat="45.90963" lon="3.27058">
        <ele>309</ele>
        <time>2022-07-25T19:28:39Z</time>
      </trkpt>
      <trkpt lat="45.90993" lon="3.27066">
        <ele>309</ele>
        <time>2022-07-25T19:28:44Z</time>
      </trkpt>
      <trkpt lat="45.91006" lon="3.27144">
        <ele>308</ele>
        <time>2022-07-25T19:28:54Z</time>
      </trkpt>
      <trkpt lat="45.91075" lon="3.27135">
        <ele>307</ele>
        <time>2022-07-25T19:29:06Z</time>
      </trkpt>
      <trkpt lat="45.91131" lon="3.27131">
        <ele>306</ele>
        <time>2022-07-25T19:29:16Z</time>
      </trkpt>
      <trkpt lat="45.91139" lon="3.27139">
        <ele>305</ele>
        <time>2022-07-25T19:29:18Z</time>
      </trkpt>
      <trkpt lat="45.91148" lon="3.27169">
        <ele>305</ele>
        <time>2022-07-25T19:29:22Z</time>
      </trkpt>
      <trkpt lat="45.91156" lon="3.27217">
        <ele>304</ele>
        <time>2022-07-25T19:29:28Z</time>
      </trkpt>
      <trkpt lat="45.91165" lon="3.27247">
        <ele>304</ele>
        <time>2022-07-25T19:29:32Z</time>
      </trkpt>
      <trkpt lat="45.91242" lon="3.27238">
        <ele>304</ele>
        <time>2022-07-25T19:29:46Z</time>
      </trkpt>
      <trkpt lat="45.91401" lon="3.27174">
        <ele>306</ele>
        <time>2022-07-25T19:30:15Z</time>
      </trkpt>
      <trkpt lat="45.91414" lon="3.27157">
        <ele>306</ele>
        <time>2022-07-25T19:30:18Z</time>
      </trkpt>
      <trkpt lat="45.91427" lon="3.27071">
        <ele>305</ele>
        <time>2022-07-25T19:30:29Z</time>
      </trkpt>
      <trkpt lat="45.91435" lon="3.27054">
        <ele>306</ele>
        <time>2022-07-25T19:30:32Z</time>
      </trkpt>
      <trkpt lat="45.91453" lon="3.27036">
        <ele>306</ele>
        <time>2022-07-25T19:30:36Z</time>
      </trkpt>
      <trkpt lat="45.91474" lon="3.27036">
        <ele>307</ele>
        <time>2022-07-25T19:30:40Z</time>
      </trkpt>
      <trkpt lat="45.91629" lon="3.27071">
        <ele>313</ele>
        <time>2022-07-25T19:31:07Z</time>
      </trkpt>
      <trkpt lat="45.91671" lon="3.27084">
        <ele>314</ele>
        <time>2022-07-25T19:31:15Z</time>
      </trkpt>
      <trkpt lat="45.91787" lon="3.27114">
        <ele>318</ele>
        <time>2022-07-25T19:31:36Z</time>
      </trkpt>
      <trkpt lat="45.91938" lon="3.27161">
        <ele>315</ele>
        <time>2022-07-25T19:32:04Z</time>
      </trkpt>
      <trkpt lat="45.92058" lon="3.27178">
        <ele>315</ele>
        <time>2022-07-25T19:32:25Z</time>
      </trkpt>
      <trkpt lat="45.92109" lon="3.27182">
        <ele>314</ele>
        <time>2022-07-25T19:32:34Z</time>
      </trkpt>
      <trkpt lat="45.92186" lon="3.27195">
        <ele>313</ele>
        <time>2022-07-25T19:32:48Z</time>
      </trkpt>
      <trkpt lat="45.92208" lon="3.27204">
        <ele>312</ele>
        <time>2022-07-25T19:32:52Z</time>
      </trkpt>
      <trkpt lat="45.92221" lon="3.27217">
        <ele>312</ele>
        <time>2022-07-25T19:32:55Z</time>
      </trkpt>
      <trkpt lat="45.92251" lon="3.27272">
        <ele>312</ele>
        <time>2022-07-25T19:33:03Z</time>
      </trkpt>
      <trkpt lat="45.92281" lon="3.27298">
        <ele>311</ele>
        <time>2022-07-25T19:33:10Z</time>
      </trkpt>
      <trkpt lat="45.92302" lon="3.27298">
        <ele>310</ele>
        <time>2022-07-25T19:33:13Z</time>
      </trkpt>
      <trkpt lat="45.92324" lon="3.27281">
        <ele>310</ele>
        <time>2022-07-25T19:33:18Z</time>
      </trkpt>
      <trkpt lat="45.9235" lon="3.27375">
        <ele>309</ele>
        <time>2022-07-25T19:33:30Z</time>
      </trkpt>
      <trkpt lat="45.92354" lon="3.27397">
        <ele>309</ele>
        <time>2022-07-25T19:33:33Z</time>
      </trkpt>
      <trkpt lat="45.92328" lon="3.27547">
        <ele>309</ele>
        <time>2022-07-25T19:33:52Z</time>
      </trkpt>
      <trkpt lat="45.92315" lon="3.27684">
        <ele>311</ele>
        <time>2022-07-25T19:34:09Z</time>
      </trkpt>
      <trkpt lat="45.92285" lon="3.27933">
        <ele>313</ele>
        <time>2022-07-25T19:34:41Z</time>
      </trkpt>
      <trkpt lat="45.92255" lon="3.28049">
        <ele>312</ele>
        <time>2022-07-25T19:34:56Z</time>
      </trkpt>
      <trkpt lat="45.92195" lon="3.28204">
        <ele>311</ele>
        <time>2022-07-25T19:35:18Z</time>
      </trkpt>
      <trkpt lat="45.92165" lon="3.28315">
        <ele>309</ele>
        <time>2022-07-25T19:35:33Z</time>
      </trkpt>
      <trkpt lat="45.92152" lon="3.28427">
        <ele>307</ele>
        <time>2022-07-25T19:35:47Z</time>
      </trkpt>
      <trkpt lat="45.92079" lon="3.28697">
        <ele>306</ele>
        <time>2022-07-25T19:36:23Z</time>
      </trkpt>
      <trkpt lat="45.92066" lon="3.28907">
        <ele>308</ele>
        <time>2022-07-25T19:36:49Z</time>
      </trkpt>
      <trkpt lat="45.92023" lon="3.29277">
        <ele>311</ele>
        <time>2022-07-25T19:37:35Z</time>
      </trkpt>
      <trkpt lat="45.92002" lon="3.29354">
        <ele>312</ele>
        <time>2022-07-25T19:37:45Z</time>
      </trkpt>
      <trkpt lat="45.9195" lon="3.29453">
        <ele>312</ele>
        <time>2022-07-25T19:38:01Z</time>
      </trkpt>
      <trkpt lat="45.91938" lon="3.29495">
        <ele>311</ele>
        <time>2022-07-25T19:38:06Z</time>
      </trkpt>
      <trkpt lat="45.91929" lon="3.29547">
        <ele>310</ele>
        <time>2022-07-25T19:38:13Z</time>
      </trkpt>
      <trkpt lat="45.91938" lon="3.29792">
        <ele>302</ele>
        <time>2022-07-25T19:38:43Z</time>
      </trkpt>
      <trkpt lat="45.9195" lon="3.2995">
        <ele>302</ele>
        <time>2022-07-25T19:39:03Z</time>
      </trkpt>
      <trkpt lat="45.91955" lon="3.29963">
        <ele>301</ele>
        <time>2022-07-25T19:39:05Z</time>
      </trkpt>
      <trkpt lat="45.91955" lon="3.30066">
        <ele>301</ele>
        <time>2022-07-25T19:39:18Z</time>
      </trkpt>
      <trkpt lat="45.91899" lon="3.30555">
        <ele>303</ele>
        <time>2022-07-25T19:40:19Z</time>
      </trkpt>
      <trkpt lat="45.9189" lon="3.30779">
        <ele>305</ele>
        <time>2022-07-25T19:40:47Z</time>
      </trkpt>
      <trkpt lat="45.91882" lon="3.30869">
        <ele>306</ele>
        <time>2022-07-25T19:40:58Z</time>
      </trkpt>
      <trkpt lat="45.91847" lon="3.31028">
        <ele>311</ele>
        <time>2022-07-25T19:41:19Z</time>
      </trkpt>
      <trkpt lat="45.91847" lon="3.31079">
        <ele>311</ele>
        <time>2022-07-25T19:41:25Z</time>
      </trkpt>
      <trkpt lat="45.91865" lon="3.31311">
        <ele>308</ele>
        <time>2022-07-25T19:41:54Z</time>
      </trkpt>
      <trkpt lat="45.91869" lon="3.31401">
        <ele>306</ele>
        <time>2022-07-25T19:42:05Z</time>
      </trkpt>
      <trkpt lat="45.91865" lon="3.31611">
        <ele>303</ele>
        <time>2022-07-25T19:42:31Z</time>
      </trkpt>
      <trkpt lat="45.91847" lon="3.31787">
        <ele>302</ele>
        <time>2022-07-25T19:42:53Z</time>
      </trkpt>
      <trkpt lat="45.91839" lon="3.31843">
        <ele>302</ele>
        <time>2022-07-25T19:43:00Z</time>
      </trkpt>
      <trkpt lat="45.91839" lon="3.31903">
        <ele>302</ele>
        <time>2022-07-25T19:43:08Z</time>
      </trkpt>
      <trkpt lat="45.91843" lon="3.31946">
        <ele>302</ele>
        <time>2022-07-25T19:43:13Z</time>
      </trkpt>
      <trkpt lat="45.91895" lon="3.32113">
        <ele>302</ele>
        <time>2022-07-25T19:43:36Z</time>
      </trkpt>
      <trkpt lat="45.91916" lon="3.32199">
        <ele>302</ele>
        <time>2022-07-25T19:43:47Z</time>
      </trkpt>
      <trkpt lat="45.91933" lon="3.32311">
        <ele>300</ele>
        <time>2022-07-25T19:44:01Z</time>
      </trkpt>
      <trkpt lat="45.91972" lon="3.32482">
        <ele>298</ele>
        <time>2022-07-25T19:44:23Z</time>
      </trkpt>
      <trkpt lat="45.91963" lon="3.32551">
        <ele>296</ele>
        <time>2022-07-25T19:44:32Z</time>
      </trkpt>
      <trkpt lat="45.91963" lon="3.32615">
        <ele>296</ele>
        <time>2022-07-25T19:44:40Z</time>
      </trkpt>
      <trkpt lat="45.91972" lon="3.3265">
        <ele>297</ele>
        <time>2022-07-25T19:44:45Z</time>
      </trkpt>
      <trkpt lat="45.92002" lon="3.32705">
        <ele>299</ele>
        <time>2022-07-25T19:44:53Z</time>
      </trkpt>
      <trkpt lat="45.92006" lon="3.32745">
        <ele>301</ele>
        <time>2022-07-25T19:44:58Z</time>
      </trkpt>
      <trkpt lat="45.92002" lon="3.32705">
        <ele>299</ele>
        <time>2022-07-25T19:45:03Z</time>
      </trkpt>
      <trkpt lat="45.92032" lon="3.32697">
        <ele>301</ele>
        <time>2022-07-25T19:45:09Z</time>
      </trkpt>
      <trkpt lat="45.92079" lon="3.32671">
        <ele>302</ele>
        <time>2022-07-25T19:45:18Z</time>
      </trkpt>
      <trkpt lat="45.92105" lon="3.32675">
        <ele>304</ele>
        <time>2022-07-25T19:45:22Z</time>
      </trkpt>
      <trkpt lat="45.92135" lon="3.32697">
        <ele>307</ele>
        <time>2022-07-25T19:45:28Z</time>
      </trkpt>
      <trkpt lat="45.92144" lon="3.32705">
        <ele>308</ele>
        <time>2022-07-25T19:45:30Z</time>
      </trkpt>
      <trkpt lat="45.92152" lon="3.32731">
        <ele>310</ele>
        <time>2022-07-25T19:45:34Z</time>
      </trkpt>
      <trkpt lat="45.92199" lon="3.3274">
        <ele>311</ele>
        <time>2022-07-25T19:45:42Z</time>
      </trkpt>
      <trkpt lat="45.92264" lon="3.32723">
        <ele>310</ele>
        <time>2022-07-25T19:45:54Z</time>
      </trkpt>
      <trkpt lat="45.92294" lon="3.32727">
        <ele>310</ele>
        <time>2022-07-25T19:45:59Z</time>
      </trkpt>
      <trkpt lat="45.92311" lon="3.3274">
        <ele>311</ele>
        <time>2022-07-25T19:46:03Z</time>
      </trkpt>
      <trkpt lat="45.92392" lon="3.32783">
        <ele>309</ele>
        <time>2022-07-25T19:46:18Z</time>
      </trkpt>
      <trkpt lat="45.92551" lon="3.32796">
        <ele>306</ele>
        <time>2022-07-25T19:46:46Z</time>
      </trkpt>
      <trkpt lat="45.92719" lon="3.32813">
        <ele>305</ele>
        <time>2022-07-25T19:47:16Z</time>
      </trkpt>
      <trkpt lat="45.92865" lon="3.32821">
        <ele>307</ele>
        <time>2022-07-25T19:47:42Z</time>
      </trkpt>
      <trkpt lat="45.93131" lon="3.32826">
        <ele>307</ele>
        <time>2022-07-25T19:48:30Z</time>
      </trkpt>
      <trkpt lat="45.93264" lon="3.32787">
        <ele>308</ele>
        <time>2022-07-25T19:48:54Z</time>
      </trkpt>
      <trkpt lat="45.93328" lon="3.32778">
        <ele>309</ele>
        <time>2022-07-25T19:49:05Z</time>
      </trkpt>
      <trkpt lat="45.93564" lon="3.32783">
        <ele>311</ele>
        <time>2022-07-25T19:49:47Z</time>
      </trkpt>
      <trkpt lat="45.93624" lon="3.32757">
        <ele>311</ele>
        <time>2022-07-25T19:49:58Z</time>
      </trkpt>
      <trkpt lat="45.9371" lon="3.32705">
        <ele>310</ele>
        <time>2022-07-25T19:50:15Z</time>
      </trkpt>
      <trkpt lat="45.93925" lon="3.32568">
        <ele>310</ele>
        <time>2022-07-25T19:50:57Z</time>
      </trkpt>
      <trkpt lat="45.9398" lon="3.32547">
        <ele>309</ele>
        <time>2022-07-25T19:51:07Z</time>
      </trkpt>
      <trkpt lat="45.94349" lon="3.32512">
        <ele>314</ele>
        <time>2022-07-25T19:52:13Z</time>
      </trkpt>
      <trkpt lat="45.94405" lon="3.32495">
        <ele>314</ele>
        <time>2022-07-25T19:52:23Z</time>
      </trkpt>
      <trkpt lat="45.94504" lon="3.32439">
        <ele>315</ele>
        <time>2022-07-25T19:52:42Z</time>
      </trkpt>
      <trkpt lat="45.94972" lon="3.32079">
        <ele>318</ele>
        <time>2022-07-25T19:54:16Z</time>
      </trkpt>
      <trkpt lat="45.95057" lon="3.31933">
        <ele>319</ele>
        <time>2022-07-25T19:54:40Z</time>
      </trkpt>
      <trkpt lat="45.95156" lon="3.3177">
        <ele>319</ele>
        <time>2022-07-25T19:55:07Z</time>
      </trkpt>
      <trkpt lat="45.95203" lon="3.31731">
        <ele>320</ele>
        <time>2022-07-25T19:55:16Z</time>
      </trkpt>
      <trkpt lat="45.95225" lon="3.31461">
        <ele>316</ele>
        <time>2022-07-25T19:55:50Z</time>
      </trkpt>
      <trkpt lat="45.95328" lon="3.31461">
        <ele>318</ele>
        <time>2022-07-25T19:56:08Z</time>
      </trkpt>
      <trkpt lat="45.95435" lon="3.31478">
        <ele>318</ele>
        <time>2022-07-25T19:56:27Z</time>
      </trkpt>
      <trkpt lat="45.95564" lon="3.31495">
        <ele>317</ele>
        <time>2022-07-25T19:56:50Z</time>
      </trkpt>
      <trkpt lat="45.95645" lon="3.31482">
        <ele>319</ele>
        <time>2022-07-25T19:57:05Z</time>
      </trkpt>
      <trkpt lat="45.95684" lon="3.31452">
        <ele>320</ele>
        <time>2022-07-25T19:57:13Z</time>
      </trkpt>
      <trkpt lat="45.95766" lon="3.31375">
        <ele>320</ele>
        <time>2022-07-25T19:57:30Z</time>
      </trkpt>
      <trkpt lat="45.95826" lon="3.31332">
        <ele>319</ele>
        <time>2022-07-25T19:57:42Z</time>
      </trkpt>
      <trkpt lat="45.95954" lon="3.31289">
        <ele>324</ele>
        <time>2022-07-25T19:58:06Z</time>
      </trkpt>
      <trkpt lat="45.96006" lon="3.31264">
        <ele>325</ele>
        <time>2022-07-25T19:58:15Z</time>
      </trkpt>
      <trkpt lat="45.96135" lon="3.31186">
        <ele>323</ele>
        <time>2022-07-25T19:58:40Z</time>
      </trkpt>
      <trkpt lat="45.96229" lon="3.31122">
        <ele>322</ele>
        <time>2022-07-25T19:58:59Z</time>
      </trkpt>
      <trkpt lat="45.96315" lon="3.31088">
        <ele>323</ele>
        <time>2022-07-25T19:59:15Z</time>
      </trkpt>
      <trkpt lat="45.96362" lon="3.31083">
        <ele>323</ele>
        <time>2022-07-25T19:59:23Z</time>
      </trkpt>
      <trkpt lat="45.96388" lon="3.31092">
        <ele>323</ele>
        <time>2022-07-25T19:59:28Z</time>
      </trkpt>
      <trkpt lat="45.96422" lon="3.31113">
        <ele>323</ele>
        <time>2022-07-25T19:59:34Z</time>
      </trkpt>
      <trkpt lat="45.96448" lon="3.31143">
        <ele>322</ele>
        <time>2022-07-25T19:59:40Z</time>
      </trkpt>
      <trkpt lat="45.96499" lon="3.31294">
        <ele>321</ele>
        <time>2022-07-25T20:00:01Z</time>
      </trkpt>
      <trkpt lat="45.96568" lon="3.31457">
        <ele>322</ele>
        <time>2022-07-25T20:00:25Z</time>
      </trkpt>
      <trkpt lat="45.9662" lon="3.31538">
        <ele>321</ele>
        <time>2022-07-25T20:00:38Z</time>
      </trkpt>
      <trkpt lat="45.96774" lon="3.31697">
        <ele>319</ele>
        <time>2022-07-25T20:01:12Z</time>
      </trkpt>
      <trkpt lat="45.97032" lon="3.31933">
        <ele>319</ele>
        <time>2022-07-25T20:02:06Z</time>
      </trkpt>
      <trkpt lat="45.971" lon="3.3201">
        <ele>319</ele>
        <time>2022-07-25T20:02:22Z</time>
      </trkpt>
      <trkpt lat="45.97169" lon="3.32178">
        <ele>320</ele>
        <time>2022-07-25T20:02:46Z</time>
      </trkpt>
      <trkpt lat="45.9719" lon="3.32199">
        <ele>320</ele>
        <time>2022-07-25T20:02:50Z</time>
      </trkpt>
      <trkpt lat="45.97225" lon="3.32221">
        <ele>320</ele>
        <time>2022-07-25T20:02:57Z</time>
      </trkpt>
      <trkpt lat="45.9725" lon="3.32221">
        <ele>320</ele>
        <time>2022-07-25T20:03:02Z</time>
      </trkpt>
      <trkpt lat="45.97281" lon="3.32212">
        <ele>320</ele>
        <time>2022-07-25T20:03:07Z</time>
      </trkpt>
      <trkpt lat="45.97332" lon="3.32203">
        <ele>318</ele>
        <time>2022-07-25T20:03:16Z</time>
      </trkpt>
      <trkpt lat="45.97388" lon="3.32199">
        <ele>317</ele>
        <time>2022-07-25T20:03:26Z</time>
      </trkpt>
      <trkpt lat="45.97439" lon="3.32191">
        <ele>315</ele>
        <time>2022-07-25T20:03:36Z</time>
      </trkpt>
      <trkpt lat="45.97461" lon="3.32178">
        <ele>315</ele>
        <time>2022-07-25T20:03:40Z</time>
      </trkpt>
      <trkpt lat="45.97555" lon="3.32057">
        <ele>313</ele>
        <time>2022-07-25T20:04:02Z</time>
      </trkpt>
      <trkpt lat="45.97817" lon="3.3171">
        <ele>310</ele>
        <time>2022-07-25T20:05:06Z</time>
      </trkpt>
      <trkpt lat="45.97886" lon="3.31624">
        <ele>310</ele>
        <time>2022-07-25T20:05:22Z</time>
      </trkpt>
      <trkpt lat="45.97954" lon="3.3156">
        <ele>309</ele>
        <time>2022-07-25T20:05:36Z</time>
      </trkpt>
      <trkpt lat="45.98044" lon="3.315">
        <ele>309</ele>
        <time>2022-07-25T20:05:54Z</time>
      </trkpt>
      <trkpt lat="45.98499" lon="3.31221">
        <ele>315</ele>
        <time>2022-07-25T20:07:22Z</time>
      </trkpt>
      <trkpt lat="45.9865" lon="3.31131">
        <ele>322</ele>
        <time>2022-07-25T20:07:51Z</time>
      </trkpt>
      <trkpt lat="45.98735" lon="3.31066">
        <ele>328</ele>
        <time>2022-07-25T20:08:08Z</time>
      </trkpt>
      <trkpt lat="45.98791" lon="3.30985">
        <ele>330</ele>
        <time>2022-07-25T20:08:22Z</time>
      </trkpt>
      <trkpt lat="45.98851" lon="3.3086">
        <ele>332</ele>
        <time>2022-07-25T20:08:46Z</time>
      </trkpt>
      <trkpt lat="45.98873" lon="3.30822">
        <ele>332</ele>
        <time>2022-07-25T20:08:52Z</time>
      </trkpt>
      <trkpt lat="45.99044" lon="3.3068">
        <ele>335</ele>
        <time>2022-07-25T20:09:27Z</time>
      </trkpt>
      <trkpt lat="45.99182" lon="3.30538">
        <ele>336</ele>
        <time>2022-07-25T20:09:57Z</time>
      </trkpt>
      <trkpt lat="45.99203" lon="3.30495">
        <ele>336</ele>
        <time>2022-07-25T20:10:03Z</time>
      </trkpt>
      <trkpt lat="45.99272" lon="3.30255">
        <ele>335</ele>
        <time>2022-07-25T20:10:36Z</time>
      </trkpt>
      <trkpt lat="45.99293" lon="3.30221">
        <ele>335</ele>
        <time>2022-07-25T20:10:41Z</time>
      </trkpt>
      <trkpt lat="45.9931" lon="3.30204">
        <ele>335</ele>
        <time>2022-07-25T20:10:45Z</time>
      </trkpt>
      <trkpt lat="45.99366" lon="3.30169">
        <ele>334</ele>
        <time>2022-07-25T20:10:56Z</time>
      </trkpt>
      <trkpt lat="45.99409" lon="3.30135">
        <ele>332</ele>
        <time>2022-07-25T20:11:04Z</time>
      </trkpt>
      <trkpt lat="45.99512" lon="3.30002">
        <ele>330</ele>
        <time>2022-07-25T20:11:29Z</time>
      </trkpt>
      <trkpt lat="45.99658" lon="3.2989">
        <ele>333</ele>
        <time>2022-07-25T20:11:59Z</time>
      </trkpt>
      <trkpt lat="45.99941" lon="3.29762">
        <ele>321</ele>
        <time>2022-07-25T20:12:51Z</time>
      </trkpt>
      <trkpt lat="46.0004" lon="3.29723">
        <ele>319</ele>
        <time>2022-07-25T20:13:10Z</time>
      </trkpt>
      <trkpt lat="46.00087" lon="3.29736">
        <ele>318</ele>
        <time>2022-07-25T20:13:18Z</time>
      </trkpt>
      <trkpt lat="46.00109" lon="3.29714">
        <ele>318</ele>
        <time>2022-07-25T20:13:23Z</time>
      </trkpt>
      <trkpt lat="46.00117" lon="3.29697">
        <ele>317</ele>
        <time>2022-07-25T20:13:25Z</time>
      </trkpt>
      <trkpt lat="46.00079" lon="3.29646">
        <ele>316</ele>
        <time>2022-07-25T20:13:35Z</time>
      </trkpt>
      <trkpt lat="46.00087" lon="3.29538">
        <ele>316</ele>
        <time>2022-07-25T20:13:48Z</time>
      </trkpt>
      <trkpt lat="46.00079" lon="3.29422">
        <ele>316</ele>
        <time>2022-07-25T20:14:02Z</time>
      </trkpt>
      <trkpt lat="46.00057" lon="3.29178">
        <ele>313</ele>
        <time>2022-07-25T20:14:33Z</time>
      </trkpt>
      <trkpt lat="46.00143" lon="3.28478">
        <ele>313</ele>
        <time>2022-07-25T20:16:01Z</time>
      </trkpt>
      <trkpt lat="46.00143" lon="3.28362">
        <ele>313</ele>
        <time>2022-07-25T20:16:15Z</time>
      </trkpt>
      <trkpt lat="46.00057" lon="3.28045">
        <ele>315</ele>
        <time>2022-07-25T20:16:57Z</time>
      </trkpt>
      <trkpt lat="46.00014" lon="3.27663">
        <ele>314</ele>
        <time>2022-07-25T20:17:45Z</time>
      </trkpt>
      <trkpt lat="46.00006" lon="3.27474">
        <ele>316</ele>
        <time>2022-07-25T20:18:08Z</time>
      </trkpt>
      <trkpt lat="46.00006" lon="3.27388">
        <ele>317</ele>
        <time>2022-07-25T20:18:19Z</time>
      </trkpt>
      <trkpt lat="46.00014" lon="3.27307">
        <ele>318</ele>
        <time>2022-07-25T20:18:29Z</time>
      </trkpt>
      <trkpt lat="46.00057" lon="3.27105">
        <ele>318</ele>
        <time>2022-07-25T20:18:55Z</time>
      </trkpt>
      <trkpt lat="46.00083" lon="3.26749">
        <ele>317</ele>
        <time>2022-07-25T20:19:39Z</time>
      </trkpt>
      <trkpt lat="46.00147" lon="3.26307">
        <ele>317</ele>
        <time>2022-07-25T20:20:35Z</time>
      </trkpt>
      <trkpt lat="46.00246" lon="3.25839">
        <ele>320</ele>
        <time>2022-07-25T20:21:36Z</time>
      </trkpt>
      <trkpt lat="46.0028" lon="3.2556">
        <ele>321</ele>
        <time>2022-07-25T20:22:11Z</time>
      </trkpt>
      <trkpt lat="46.00358" lon="3.25294">
        <ele>322</ele>
        <time>2022-07-25T20:22:46Z</time>
      </trkpt>
      <trkpt lat="46.00362" lon="3.25238">
        <ele>322</ele>
        <time>2022-07-25T20:22:53Z</time>
      </trkpt>
      <trkpt lat="46.00315" lon="3.24848">
        <ele>326</ele>
        <time>2022-07-25T20:23:42Z</time>
      </trkpt>
      <trkpt lat="46.00319" lon="3.24818">
        <ele>326</ele>
        <time>2022-07-25T20:23:46Z</time>
      </trkpt>
      <trkpt lat="46.00336" lon="3.24783">
        <ele>326</ele>
        <time>2022-07-25T20:23:51Z</time>
      </trkpt>
      <trkpt lat="46.00379" lon="3.24779">
        <ele>326</ele>
        <time>2022-07-25T20:23:59Z</time>
      </trkpt>
      <trkpt lat="46.00413" lon="3.24749">
        <ele>327</ele>
        <time>2022-07-25T20:24:06Z</time>
      </trkpt>
      <trkpt lat="46.00435" lon="3.24689">
        <ele>328</ele>
        <time>2022-07-25T20:24:15Z</time>
      </trkpt>
      <trkpt lat="46.00461" lon="3.24457">
        <ele>331</ele>
        <time>2022-07-25T20:24:44Z</time>
      </trkpt>
      <trkpt lat="46.00529" lon="3.24238">
        <ele>335</ele>
        <time>2022-07-25T20:25:13Z</time>
      </trkpt>
      <trkpt lat="46.00533" lon="3.24131">
        <ele>336</ele>
        <time>2022-07-25T20:25:26Z</time>
      </trkpt>
      <trkpt lat="46.00495" lon="3.23886">
        <ele>336</ele>
        <time>2022-07-25T20:25:57Z</time>
      </trkpt>
      <trkpt lat="46.00499" lon="3.23813">
        <ele>336</ele>
        <time>2022-07-25T20:26:07Z</time>
      </trkpt>
      <trkpt lat="46.00521" lon="3.23668">
        <ele>336</ele>
        <time>2022-07-25T20:26:25Z</time>
      </trkpt>
      <trkpt lat="46.00542" lon="3.23487">
        <ele>336</ele>
        <time>2022-07-25T20:26:48Z</time>
      </trkpt>
      <trkpt lat="46.00555" lon="3.23401">
        <ele>337</ele>
        <time>2022-07-25T20:26:58Z</time>
      </trkpt>
      <trkpt lat="46.00564" lon="3.23363">
        <ele>337</ele>
        <time>2022-07-25T20:27:03Z</time>
      </trkpt>
      <trkpt lat="46.00564" lon="3.23346">
        <ele>337</ele>
        <time>2022-07-25T20:27:05Z</time>
      </trkpt>
      <trkpt lat="46.00585" lon="3.23328">
        <ele>338</ele>
        <time>2022-07-25T20:27:10Z</time>
      </trkpt>
      <trkpt lat="46.00615" lon="3.23277">
        <ele>339</ele>
        <time>2022-07-25T20:27:18Z</time>
      </trkpt>
      <trkpt lat="46.00636" lon="3.23247">
        <ele>339</ele>
        <time>2022-07-25T20:27:23Z</time>
      </trkpt>
      <trkpt lat="46.00662" lon="3.23243">
        <ele>339</ele>
        <time>2022-07-25T20:27:28Z</time>
      </trkpt>
      <trkpt lat="46.00671" lon="3.2323">
        <ele>339</ele>
        <time>2022-07-25T20:27:30Z</time>
      </trkpt>
      <trkpt lat="46.00671" lon="3.23153">
        <ele>339</ele>
        <time>2022-07-25T20:27:40Z</time>
      </trkpt>
      <trkpt lat="46.00675" lon="3.23118">
        <ele>340</ele>
        <time>2022-07-25T20:27:44Z</time>
      </trkpt>
      <trkpt lat="46.00684" lon="3.2308">
        <ele>340</ele>
        <time>2022-07-25T20:27:49Z</time>
      </trkpt>
      <trkpt lat="46.00718" lon="3.23024">
        <ele>342</ele>
        <time>2022-07-25T20:27:58Z</time>
      </trkpt>
      <trkpt lat="46.00761" lon="3.22917">
        <ele>345</ele>
        <time>2022-07-25T20:28:14Z</time>
      </trkpt>
      <trkpt lat="46.008" lon="3.22779">
        <ele>344</ele>
        <time>2022-07-25T20:28:32Z</time>
      </trkpt>
      <trkpt lat="46.00847" lon="3.22633">
        <ele>343</ele>
        <time>2022-07-25T20:28:52Z</time>
      </trkpt>
      <trkpt lat="46.00894" lon="3.22547">
        <ele>344</ele>
        <time>2022-07-25T20:29:05Z</time>
      </trkpt>
      <trkpt lat="46.00945" lon="3.2247">
        <ele>345</ele>
        <time>2022-07-25T20:29:19Z</time>
      </trkpt>
      <trkpt lat="46.01027" lon="3.22427">
        <ele>348</ele>
        <time>2022-07-25T20:29:34Z</time>
      </trkpt>
      <trkpt lat="46.01091" lon="3.2238">
        <ele>347</ele>
        <time>2022-07-25T20:29:47Z</time>
      </trkpt>
      <trkpt lat="46.01147" lon="3.2232">
        <ele>348</ele>
        <time>2022-07-25T20:29:59Z</time>
      </trkpt>
      <trkpt lat="46.01186" lon="3.22256">
        <ele>347</ele>
        <time>2022-07-25T20:30:10Z</time>
      </trkpt>
      <trkpt lat="46.01203" lon="3.22217">
        <ele>348</ele>
        <time>2022-07-25T20:30:16Z</time>
      </trkpt>
      <trkpt lat="46.0128" lon="3.21912">
        <ele>352</ele>
        <time>2022-07-25T20:30:56Z</time>
      </trkpt>
      <trkpt lat="46.01375" lon="3.21685">
        <ele>351</ele>
        <time>2022-07-25T20:31:28Z</time>
      </trkpt>
      <trkpt lat="46.0143" lon="3.21513">
        <ele>351</ele>
        <time>2022-07-25T20:31:52Z</time>
      </trkpt>
      <trkpt lat="46.01473" lon="3.21316">
        <ele>352</ele>
        <time>2022-07-25T20:32:17Z</time>
      </trkpt>
      <trkpt lat="46.01512" lon="3.2108">
        <ele>353</ele>
        <time>2022-07-25T20:32:47Z</time>
      </trkpt>
      <trkpt lat="46.01632" lon="3.20698">
        <ele>357</ele>
        <time>2022-07-25T20:33:39Z</time>
      </trkpt>
      <trkpt lat="46.01645" lon="3.20595">
        <ele>358</ele>
        <time>2022-07-25T20:33:52Z</time>
      </trkpt>
      <trkpt lat="46.01645" lon="3.20492">
        <ele>357</ele>
        <time>2022-07-25T20:34:05Z</time>
      </trkpt>
      <trkpt lat="46.01641" lon="3.20393">
        <ele>354</ele>
        <time>2022-07-25T20:34:17Z</time>
      </trkpt>
      <trkpt lat="46.01662" lon="3.20324">
        <ele>352</ele>
        <time>2022-07-25T20:34:26Z</time>
      </trkpt>
      <trkpt lat="46.01671" lon="3.20307">
        <ele>352</ele>
        <time>2022-07-25T20:34:29Z</time>
      </trkpt>
      <trkpt lat="46.01718" lon="3.20226">
        <ele>351</ele>
        <time>2022-07-25T20:34:42Z</time>
      </trkpt>
      <trkpt lat="46.01739" lon="3.20213">
        <ele>351</ele>
        <time>2022-07-25T20:34:46Z</time>
      </trkpt>
      <trkpt lat="46.01731" lon="3.20144">
        <ele>351</ele>
        <time>2022-07-25T20:34:55Z</time>
      </trkpt>
      <trkpt lat="46.01731" lon="3.20058">
        <ele>351</ele>
        <time>2022-07-25T20:35:05Z</time>
      </trkpt>
      <trkpt lat="46.01722" lon="3.20054">
        <ele>351</ele>
        <time>2022-07-25T20:35:07Z</time>
      </trkpt>
      <trkpt lat="46.01688" lon="3.2005">
        <ele>352</ele>
        <time>2022-07-25T20:35:13Z</time>
      </trkpt>
      <trkpt lat="46.01679" lon="3.20045">
        <ele>352</ele>
        <time>2022-07-25T20:35:15Z</time>
      </trkpt>
      <trkpt lat="46.01576" lon="3.20024">
        <ele>352</ele>
        <time>2022-07-25T20:35:33Z</time>
      </trkpt>
      <trkpt lat="46.01533" lon="3.19908">
        <ele>353</ele>
        <time>2022-07-25T20:35:50Z</time>
      </trkpt>
      <trkpt lat="46.01516" lon="3.19818">
        <ele>354</ele>
        <time>2022-07-25T20:36:01Z</time>
      </trkpt>
      <trkpt lat="46.01499" lon="3.19771">
        <ele>355</ele>
        <time>2022-07-25T20:36:08Z</time>
      </trkpt>
      <trkpt lat="46.01452" lon="3.19672">
        <ele>355</ele>
        <time>2022-07-25T20:36:22Z</time>
      </trkpt>
      <trkpt lat="46.01409" lon="3.19556">
        <ele>356</ele>
        <time>2022-07-25T20:36:39Z</time>
      </trkpt>
      <trkpt lat="46.01392" lon="3.19475">
        <ele>356</ele>
        <time>2022-07-25T20:36:49Z</time>
      </trkpt>
      <trkpt lat="46.01383" lon="3.1941">
        <ele>355</ele>
        <time>2022-07-25T20:36:57Z</time>
      </trkpt>
      <trkpt lat="46.01362" lon="3.19324">
        <ele>355</ele>
        <time>2022-07-25T20:37:09Z</time>
      </trkpt>
      <trkpt lat="46.0134" lon="3.19252">
        <ele>356</ele>
        <time>2022-07-25T20:37:18Z</time>
      </trkpt>
      <trkpt lat="46.01216" lon="3.18913">
        <ele>359</ele>
        <time>2022-07-25T20:38:06Z</time>
      </trkpt>
      <trkpt lat="46.01036" lon="3.18385">
        <ele>358</ele>
        <time>2022-07-25T20:39:18Z</time>
      </trkpt>
      <trkpt lat="46.01001" lon="3.18312">
        <ele>355</ele>
        <time>2022-07-25T20:39:29Z</time>
      </trkpt>
      <trkpt lat="46.00898" lon="3.18149">
        <ele>354</ele>
        <time>2022-07-25T20:39:57Z</time>
      </trkpt>
      <trkpt lat="46.00838" lon="3.1802">
        <ele>352</ele>
        <time>2022-07-25T20:40:16Z</time>
      </trkpt>
      <trkpt lat="46.00808" lon="3.17925">
        <ele>352</ele>
        <time>2022-07-25T20:40:29Z</time>
      </trkpt>
      <trkpt lat="46.00795" lon="3.17831">
        <ele>352</ele>
        <time>2022-07-25T20:40:40Z</time>
      </trkpt>
      <trkpt lat="46.00791" lon="3.17496">
        <ele>353</ele>
        <time>2022-07-25T20:41:22Z</time>
      </trkpt>
      <trkpt lat="46.00791" lon="3.17273">
        <ele>356</ele>
        <time>2022-07-25T20:41:49Z</time>
      </trkpt>
      <trkpt lat="46.00795" lon="3.17243">
        <ele>357</ele>
        <time>2022-07-25T20:41:53Z</time>
      </trkpt>
      <trkpt lat="46.00825" lon="3.17097">
        <ele>362</ele>
        <time>2022-07-25T20:42:12Z</time>
      </trkpt>
      <trkpt lat="46.00834" lon="3.17033">
        <ele>364</ele>
        <time>2022-07-25T20:42:20Z</time>
      </trkpt>
      <trkpt lat="46.00778" lon="3.16887">
        <ele>367</ele>
        <time>2022-07-25T20:42:41Z</time>
      </trkpt>
      <trkpt lat="46.00761" lon="3.16853">
        <ele>368</ele>
        <time>2022-07-25T20:42:46Z</time>
      </trkpt>
      <trkpt lat="46.00731" lon="3.16818">
        <ele>368</ele>
        <time>2022-07-25T20:42:53Z</time>
      </trkpt>
      <trkpt lat="46.00679" lon="3.16771">
        <ele>370</ele>
        <time>2022-07-25T20:43:04Z</time>
      </trkpt>
      <trkpt lat="46.00662" lon="3.1675">
        <ele>370</ele>
        <time>2022-07-25T20:43:08Z</time>
      </trkpt>
      <trkpt lat="46.00533" lon="3.16612">
        <ele>371</ele>
        <time>2022-07-25T20:43:36Z</time>
      </trkpt>
      <trkpt lat="46.00473" lon="3.16535">
        <ele>369</ele>
        <time>2022-07-25T20:43:51Z</time>
      </trkpt>
      <trkpt lat="46.0043" lon="3.16449">
        <ele>369</ele>
        <time>2022-07-25T20:44:04Z</time>
      </trkpt>
      <trkpt lat="46.00255" lon="3.16054">
        <ele>372</ele>
        <time>2022-07-25T20:45:02Z</time>
      </trkpt>
      <trkpt lat="46.0022" lon="3.15981">
        <ele>373</ele>
        <time>2022-07-25T20:45:13Z</time>
      </trkpt>
      <trkpt lat="46.00194" lon="3.15887">
        <ele>374</ele>
        <time>2022-07-25T20:45:25Z</time>
      </trkpt>
      <trkpt lat="46.0016" lon="3.15629">
        <ele>375</ele>
        <time>2022-07-25T20:45:57Z</time>
      </trkpt>
      <trkpt lat="46.00113" lon="3.15363">
        <ele>381</ele>
        <time>2022-07-25T20:46:31Z</time>
      </trkpt>
      <trkpt lat="46.00019" lon="3.15016">
        <ele>382</ele>
        <time>2022-07-25T20:47:17Z</time>
      </trkpt>
      <trkpt lat="46.0001" lon="3.14926">
        <ele>382</ele>
        <time>2022-07-25T20:47:29Z</time>
      </trkpt>
      <trkpt lat="46.00023" lon="3.14758">
        <ele>379</ele>
        <time>2022-07-25T20:47:50Z</time>
      </trkpt>
      <trkpt lat="46.00019" lon="3.14642">
        <ele>377</ele>
        <time>2022-07-25T20:48:04Z</time>
      </trkpt>
      <trkpt lat="46.00006" lon="3.14574">
        <ele>375</ele>
        <time>2022-07-25T20:48:13Z</time>
      </trkpt>
      <trkpt lat="45.99984" lon="3.14488">
        <ele>373</ele>
        <time>2022-07-25T20:48:24Z</time>
      </trkpt>
      <trkpt lat="45.99971" lon="3.14411">
        <ele>372</ele>
        <time>2022-07-25T20:48:34Z</time>
      </trkpt>
      <trkpt lat="45.99971" lon="3.14303">
        <ele>370</ele>
        <time>2022-07-25T20:48:47Z</time>
      </trkpt>
      <trkpt lat="45.99963" lon="3.14243">
        <ele>369</ele>
        <time>2022-07-25T20:48:55Z</time>
      </trkpt>
      <trkpt lat="45.99946" lon="3.14183">
        <ele>367</ele>
        <time>2022-07-25T20:49:03Z</time>
      </trkpt>
      <trkpt lat="45.99873" lon="3.1405">
        <ele>363</ele>
        <time>2022-07-25T20:49:24Z</time>
      </trkpt>
      <trkpt lat="45.99847" lon="3.14007">
        <ele>360</ele>
        <time>2022-07-25T20:49:31Z</time>
      </trkpt>
      <trkpt lat="45.9977" lon="3.1393">
        <ele>357</ele>
        <time>2022-07-25T20:49:47Z</time>
      </trkpt>
      <trkpt lat="45.99744" lon="3.13879">
        <ele>356</ele>
        <time>2022-07-25T20:49:55Z</time>
      </trkpt>
      <trkpt lat="45.99705" lon="3.13741">
        <ele>357</ele>
        <time>2022-07-25T20:50:14Z</time>
      </trkpt>
      <trkpt lat="45.99688" lon="3.13711">
        <ele>357</ele>
        <time>2022-07-25T20:50:18Z</time>
      </trkpt>
      <trkpt lat="45.99632" lon="3.13673">
        <ele>354</ele>
        <time>2022-07-25T20:50:29Z</time>
      </trkpt>
      <trkpt lat="45.99615" lon="3.13647">
        <ele>353</ele>
        <time>2022-07-25T20:50:34Z</time>
      </trkpt>
      <trkpt lat="45.99602" lon="3.13608">
        <ele>354</ele>
        <time>2022-07-25T20:50:39Z</time>
      </trkpt>
      <trkpt lat="45.99602" lon="3.13544">
        <ele>356</ele>
        <time>2022-07-25T20:50:47Z</time>
      </trkpt>
      <trkpt lat="45.99594" lon="3.13471">
        <ele>354</ele>
        <time>2022-07-25T20:50:56Z</time>
      </trkpt>
      <trkpt lat="45.99581" lon="3.13445">
        <ele>352</ele>
        <time>2022-07-25T20:51:00Z</time>
      </trkpt>
      <trkpt lat="45.99525" lon="3.13398">
        <ele>354</ele>
        <time>2022-07-25T20:51:12Z</time>
      </trkpt>
      <trkpt lat="45.99499" lon="3.13355">
        <ele>356</ele>
        <time>2022-07-25T20:51:19Z</time>
      </trkpt>
      <trkpt lat="45.99491" lon="3.13291">
        <ele>358</ele>
        <time>2022-07-25T20:51:27Z</time>
      </trkpt>
      <trkpt lat="45.99435" lon="3.13252">
        <ele>359</ele>
        <time>2022-07-25T20:51:38Z</time>
      </trkpt>
      <trkpt lat="45.99405" lon="3.13239">
        <ele>359</ele>
        <time>2022-07-25T20:51:43Z</time>
      </trkpt>
      <trkpt lat="45.99349" lon="3.13235">
        <ele>359</ele>
        <time>2022-07-25T20:51:53Z</time>
      </trkpt>
      <trkpt lat="45.99298" lon="3.13235">
        <ele>359</ele>
        <time>2022-07-25T20:52:02Z</time>
      </trkpt>
      <trkpt lat="45.99285" lon="3.13231">
        <ele>359</ele>
        <time>2022-07-25T20:52:05Z</time>
      </trkpt>
      <trkpt lat="45.99259" lon="3.13188">
        <ele>360</ele>
        <time>2022-07-25T20:52:12Z</time>
      </trkpt>
      <trkpt lat="45.99212" lon="3.13179">
        <ele>360</ele>
        <time>2022-07-25T20:52:20Z</time>
      </trkpt>
      <trkpt lat="45.99195" lon="3.13179">
        <ele>360</ele>
        <time>2022-07-25T20:52:23Z</time>
      </trkpt>
      <trkpt lat="45.9907" lon="3.13261">
        <ele>357</ele>
        <time>2022-07-25T20:52:48Z</time>
      </trkpt>
      <trkpt lat="45.99044" lon="3.13273">
        <ele>357</ele>
        <time>2022-07-25T20:52:53Z</time>
      </trkpt>
      <trkpt lat="45.99019" lon="3.13273">
        <ele>358</ele>
        <time>2022-07-25T20:52:57Z</time>
      </trkpt>
      <trkpt lat="45.9892" lon="3.13282">
        <ele>360</ele>
        <time>2022-07-25T20:53:15Z</time>
      </trkpt>
      <trkpt lat="45.98714" lon="3.13269">
        <ele>360</ele>
        <time>2022-07-25T20:53:51Z</time>
      </trkpt>
      <trkpt lat="45.98637" lon="3.13243">
        <ele>360</ele>
        <time>2022-07-25T20:54:05Z</time>
      </trkpt>
      <trkpt lat="45.98465" lon="3.13162">
        <ele>360</ele>
        <time>2022-07-25T20:54:38Z</time>
      </trkpt>
      <trkpt lat="45.98362" lon="3.13089">
        <ele>362</ele>
        <time>2022-07-25T20:54:58Z</time>
      </trkpt>
      <trkpt lat="45.98122" lon="3.12887">
        <ele>366</ele>
        <time>2022-07-25T20:55:48Z</time>
      </trkpt>
      <trkpt lat="45.9798" lon="3.1281">
        <ele>368</ele>
        <time>2022-07-25T20:56:15Z</time>
      </trkpt>
      <trkpt lat="45.97834" lon="3.12673">
        <ele>371</ele>
        <time>2022-07-25T20:56:46Z</time>
      </trkpt>
      <trkpt lat="45.97688" lon="3.12548">
        <ele>368</ele>
        <time>2022-07-25T20:57:16Z</time>
      </trkpt>
      <trkpt lat="45.97534" lon="3.12437">
        <ele>358</ele>
        <time>2022-07-25T20:57:46Z</time>
      </trkpt>
      <trkpt lat="45.97435" lon="3.12389">
        <ele>351</ele>
        <time>2022-07-25T20:58:05Z</time>
      </trkpt>
      <trkpt lat="45.97229" lon="3.12213">
        <ele>341</ele>
        <time>2022-07-25T20:58:48Z</time>
      </trkpt>
      <trkpt lat="45.9716" lon="3.1214">
        <ele>341</ele>
        <time>2022-07-25T20:59:03Z</time>
      </trkpt>
      <trkpt lat="45.97105" lon="3.12055">
        <ele>341</ele>
        <time>2022-07-25T20:59:17Z</time>
      </trkpt>
      <trkpt lat="45.97049" lon="3.1199">
        <ele>342</ele>
        <time>2022-07-25T20:59:30Z</time>
      </trkpt>
      <trkpt lat="45.9704" lon="3.119">
        <ele>343</ele>
        <time>2022-07-25T20:59:41Z</time>
      </trkpt>
      <trkpt lat="45.96976" lon="3.11634">
        <ele>351</ele>
        <time>2022-07-25T21:00:16Z</time>
      </trkpt>
      <trkpt lat="45.96937" lon="3.11424">
        <ele>360</ele>
        <time>2022-07-25T21:00:43Z</time>
      </trkpt>
      <trkpt lat="45.96886" lon="3.11286">
        <ele>362</ele>
        <time>2022-07-25T21:01:02Z</time>
      </trkpt>
      <trkpt lat="45.96877" lon="3.11248">
        <ele>363</ele>
        <time>2022-07-25T21:01:07Z</time>
      </trkpt>
      <trkpt lat="45.9692" lon="3.11007">
        <ele>366</ele>
        <time>2022-07-25T21:01:38Z</time>
      </trkpt>
      <trkpt lat="45.96916" lon="3.10965">
        <ele>366</ele>
        <time>2022-07-25T21:01:43Z</time>
      </trkpt>
      <trkpt lat="45.96894" lon="3.10883">
        <ele>368</ele>
        <time>2022-07-25T21:01:54Z</time>
      </trkpt>
      <trkpt lat="45.96899" lon="3.10827">
        <ele>370</ele>
        <time>2022-07-25T21:02:01Z</time>
      </trkpt>
      <trkpt lat="45.96911" lon="3.10741">
        <ele>373</ele>
        <time>2022-07-25T21:02:12Z</time>
      </trkpt>
      <trkpt lat="45.96933" lon="3.10647">
        <ele>375</ele>
        <time>2022-07-25T21:02:24Z</time>
      </trkpt>
      <trkpt lat="45.96963" lon="3.10587">
        <ele>376</ele>
        <time>2022-07-25T21:02:33Z</time>
      </trkpt>
      <trkpt lat="45.96967" lon="3.10565">
        <ele>377</ele>
        <time>2022-07-25T21:02:36Z</time>
      </trkpt>
      <trkpt lat="45.96967" lon="3.10531">
        <ele>379</ele>
        <time>2022-07-25T21:02:40Z</time>
      </trkpt>
      <trkpt lat="45.96959" lon="3.10415">
        <ele>382</ele>
        <time>2022-07-25T21:02:55Z</time>
      </trkpt>
      <trkpt lat="45.96946" lon="3.10342">
        <ele>383</ele>
        <time>2022-07-25T21:03:04Z</time>
      </trkpt>
      <trkpt lat="45.96894" lon="3.10158">
        <ele>390</ele>
        <time>2022-07-25T21:03:29Z</time>
      </trkpt>
      <trkpt lat="45.96886" lon="3.10141">
        <ele>391</ele>
        <time>2022-07-25T21:03:31Z</time>
      </trkpt>
      <trkpt lat="45.96834" lon="3.10076">
        <ele>393</ele>
        <time>2022-07-25T21:03:44Z</time>
      </trkpt>
      <trkpt lat="45.96817" lon="3.10016">
        <ele>397</ele>
        <time>2022-07-25T21:03:52Z</time>
      </trkpt>
      <trkpt lat="45.96817" lon="3.09999">
        <ele>398</ele>
        <time>2022-07-25T21:03:54Z</time>
      </trkpt>
      <trkpt lat="45.96804" lon="3.09926">
        <ele>403</ele>
        <time>2022-07-25T21:04:03Z</time>
      </trkpt>
      <trkpt lat="45.96787" lon="3.09853">
        <ele>409</ele>
        <time>2022-07-25T21:04:13Z</time>
      </trkpt>
      <trkpt lat="45.96684" lon="3.09596">
        <ele>427</ele>
        <time>2022-07-25T21:04:49Z</time>
      </trkpt>
      <trkpt lat="45.96628" lon="3.09471">
        <ele>437</ele>
        <time>2022-07-25T21:05:08Z</time>
      </trkpt>
      <trkpt lat="45.96568" lon="3.09274">
        <ele>447</ele>
        <time>2022-07-25T21:05:34Z</time>
      </trkpt>
      <trkpt lat="45.96555" lon="3.09192">
        <ele>454</ele>
        <time>2022-07-25T21:05:45Z</time>
      </trkpt>
      <trkpt lat="45.96542" lon="3.09149">
        <ele>457</ele>
        <time>2022-07-25T21:05:50Z</time>
      </trkpt>
      <trkpt lat="45.96508" lon="3.08995">
        <ele>464</ele>
        <time>2022-07-25T21:06:10Z</time>
      </trkpt>
      <trkpt lat="45.96405" lon="3.09055">
        <ele>455</ele>
        <time>2022-07-25T21:06:30Z</time>
      </trkpt>
      <trkpt lat="45.96255" lon="3.09119">
        <ele>447</ele>
        <time>2022-07-25T21:06:58Z</time>
      </trkpt>
      <trkpt lat="45.96242" lon="3.09154">
        <ele>445</ele>
        <time>2022-07-25T21:07:03Z</time>
      </trkpt>
      <trkpt lat="45.96246" lon="3.09214">
        <ele>443</ele>
        <time>2022-07-25T21:07:10Z</time>
      </trkpt>
      <trkpt lat="45.96272" lon="3.09282">
        <ele>443</ele>
        <time>2022-07-25T21:07:20Z</time>
      </trkpt>
      <trkpt lat="45.96268" lon="3.09325">
        <ele>442</ele>
        <time>2022-07-25T21:07:25Z</time>
      </trkpt>
      <trkpt lat="45.96246" lon="3.09407">
        <ele>438</ele>
        <time>2022-07-25T21:07:36Z</time>
      </trkpt>
      <trkpt lat="45.96238" lon="3.09544">
        <ele>429</ele>
        <time>2022-07-25T21:07:53Z</time>
      </trkpt>
      <trkpt lat="45.96225" lon="3.09574">
        <ele>426</ele>
        <time>2022-07-25T21:07:58Z</time>
      </trkpt>
      <trkpt lat="45.96165" lon="3.096">
        <ele>421</ele>
        <time>2022-07-25T21:08:09Z</time>
      </trkpt>
      <trkpt lat="45.96092" lon="3.09604">
        <ele>421</ele>
        <time>2022-07-25T21:08:22Z</time>
      </trkpt>
      <trkpt lat="45.96032" lon="3.09596">
        <ele>419</ele>
        <time>2022-07-25T21:08:32Z</time>
      </trkpt>
      <trkpt lat="45.95997" lon="3.09574">
        <ele>419</ele>
        <time>2022-07-25T21:08:39Z</time>
      </trkpt>
      <trkpt lat="45.95972" lon="3.0957">
        <ele>417</ele>
        <time>2022-07-25T21:08:44Z</time>
      </trkpt>
      <trkpt lat="45.95942" lon="3.0957">
        <ele>414</ele>
        <time>2022-07-25T21:08:49Z</time>
      </trkpt>
      <trkpt lat="45.95899" lon="3.09591">
        <ele>410</ele>
        <time>2022-07-25T21:08:57Z</time>
      </trkpt>
      <trkpt lat="45.95886" lon="3.09617">
        <ele>408</ele>
        <time>2022-07-25T21:09:01Z</time>
      </trkpt>
      <trkpt lat="45.9586" lon="3.09909">
        <ele>399</ele>
        <time>2022-07-25T21:09:38Z</time>
      </trkpt>
      <trkpt lat="45.95847" lon="3.09986">
        <ele>394</ele>
        <time>2022-07-25T21:09:47Z</time>
      </trkpt>
      <trkpt lat="45.95761" lon="3.10175">
        <ele>381</ele>
        <time>2022-07-25T21:10:15Z</time>
      </trkpt>
      <trkpt lat="45.95748" lon="3.10244">
        <ele>377</ele>
        <time>2022-07-25T21:10:24Z</time>
      </trkpt>
      <trkpt lat="45.95714" lon="3.10226">
        <ele>375</ele>
        <time>2022-07-25T21:10:31Z</time>
      </trkpt>
      <trkpt lat="45.95624" lon="3.10025">
        <ele>375</ele>
        <time>2022-07-25T21:11:00Z</time>
      </trkpt>
      <trkpt lat="45.95594" lon="3.0999">
        <ele>374</ele>
        <time>2022-07-25T21:11:07Z</time>
      </trkpt>
      <trkpt lat="45.95551" lon="3.09969">
        <ele>372</ele>
        <time>2022-07-25T21:11:15Z</time>
      </trkpt>
      <trkpt lat="45.95324" lon="3.09922">
        <ele>369</ele>
        <time>2022-07-25T21:11:56Z</time>
      </trkpt>
      <trkpt lat="45.95289" lon="3.09905">
        <ele>369</ele>
        <time>2022-07-25T21:12:02Z</time>
      </trkpt>
      <trkpt lat="45.95263" lon="3.09879">
        <ele>369</ele>
        <time>2022-07-25T21:12:08Z</time>
      </trkpt>
      <trkpt lat="45.95212" lon="3.09814">
        <ele>371</ele>
        <time>2022-07-25T21:12:20Z</time>
      </trkpt>
      <trkpt lat="45.95135" lon="3.09737">
        <ele>374</ele>
        <time>2022-07-25T21:12:37Z</time>
      </trkpt>
      <trkpt lat="45.95083" lon="3.09699">
        <ele>377</ele>
        <time>2022-07-25T21:12:47Z</time>
      </trkpt>
      <trkpt lat="45.95053" lon="3.09656">
        <ele>377</ele>
        <time>2022-07-25T21:12:55Z</time>
      </trkpt>
      <trkpt lat="45.9504" lon="3.09608">
        <ele>378</ele>
        <time>2022-07-25T21:13:01Z</time>
      </trkpt>
      <trkpt lat="45.95032" lon="3.09591">
        <ele>379</ele>
        <time>2022-07-25T21:13:04Z</time>
      </trkpt>
      <trkpt lat="45.94985" lon="3.09574">
        <ele>377</ele>
        <time>2022-07-25T21:13:12Z</time>
      </trkpt>
      <trkpt lat="45.94894" lon="3.09548">
        <ele>370</ele>
        <time>2022-07-25T21:13:29Z</time>
      </trkpt>
      <trkpt lat="45.9483" lon="3.09536">
        <ele>368</ele>
        <time>2022-07-25T21:13:40Z</time>
      </trkpt>
      <trkpt lat="45.94839" lon="3.09501">
        <ele>369</ele>
        <time>2022-07-25T21:13:45Z</time>
      </trkpt>
      <trkpt lat="45.94856" lon="3.09282">
        <ele>377</ele>
        <time>2022-07-25T21:14:12Z</time>
      </trkpt>
      <trkpt lat="45.94894" lon="3.09175">
        <ele>381</ele>
        <time>2022-07-25T21:14:27Z</time>
      </trkpt>
      <trkpt lat="45.9495" lon="3.09055">
        <ele>384</ele>
        <time>2022-07-25T21:14:45Z</time>
      </trkpt>
      <trkpt lat="45.94963" lon="3.0899">
        <ele>385</ele>
        <time>2022-07-25T21:14:53Z</time>
      </trkpt>
      <trkpt lat="45.94954" lon="3.08939">
        <ele>385</ele>
        <time>2022-07-25T21:15:00Z</time>
      </trkpt>
      <trkpt lat="45.9492" lon="3.08827">
        <ele>385</ele>
        <time>2022-07-25T21:15:15Z</time>
      </trkpt>
      <trkpt lat="45.94894" lon="3.08647">
        <ele>389</ele>
        <time>2022-07-25T21:15:38Z</time>
      </trkpt>
      <trkpt lat="45.94882" lon="3.08493">
        <ele>391</ele>
        <time>2022-07-25T21:15:57Z</time>
      </trkpt>
      <trkpt lat="45.94894" lon="3.08411">
        <ele>397</ele>
        <time>2022-07-25T21:16:07Z</time>
      </trkpt>
      <trkpt lat="45.94907" lon="3.08377">
        <ele>396</ele>
        <time>2022-07-25T21:16:12Z</time>
      </trkpt>
      <trkpt lat="45.94954" lon="3.08304">
        <ele>398</ele>
        <time>2022-07-25T21:16:24Z</time>
      </trkpt>
      <trkpt lat="45.94967" lon="3.08257">
        <ele>399</ele>
        <time>2022-07-25T21:16:31Z</time>
      </trkpt>
      <trkpt lat="45.94972" lon="3.08205">
        <ele>402</ele>
        <time>2022-07-25T21:16:37Z</time>
      </trkpt>
      <trkpt lat="45.94954" lon="3.08184">
        <ele>401</ele>
        <time>2022-07-25T21:16:41Z</time>
      </trkpt>
      <trkpt lat="45.94924" lon="3.08167">
        <ele>399</ele>
        <time>2022-07-25T21:16:47Z</time>
      </trkpt>
      <trkpt lat="45.94894" lon="3.08158">
        <ele>399</ele>
        <time>2022-07-25T21:16:52Z</time>
      </trkpt>
      <trkpt lat="45.94882" lon="3.08145">
        <ele>400</ele>
        <time>2022-07-25T21:16:55Z</time>
      </trkpt>
      <trkpt lat="45.9489" lon="3.08046">
        <ele>405</ele>
        <time>2022-07-25T21:17:07Z</time>
      </trkpt>
      <trkpt lat="45.94882" lon="3.07999">
        <ele>407</ele>
        <time>2022-07-25T21:17:13Z</time>
      </trkpt>
      <trkpt lat="45.9489" lon="3.07952">
        <ele>410</ele>
        <time>2022-07-25T21:17:19Z</time>
      </trkpt>
      <trkpt lat="45.94903" lon="3.07922">
        <ele>412</ele>
        <time>2022-07-25T21:17:24Z</time>
      </trkpt>
      <trkpt lat="45.94903" lon="3.07853">
        <ele>416</ele>
        <time>2022-07-25T21:17:32Z</time>
      </trkpt>
      <trkpt lat="45.94869" lon="3.07836">
        <ele>416</ele>
        <time>2022-07-25T21:17:39Z</time>
      </trkpt>
      <trkpt lat="45.94809" lon="3.07845">
        <ele>415</ele>
        <time>2022-07-25T21:17:49Z</time>
      </trkpt>
      <trkpt lat="45.948" lon="3.0787">
        <ele>414</ele>
        <time>2022-07-25T21:17:53Z</time>
      </trkpt>
      <trkpt lat="45.94787" lon="3.07879">
        <ele>413</ele>
        <time>2022-07-25T21:17:55Z</time>
      </trkpt>
      <trkpt lat="45.9477" lon="3.07883">
        <ele>413</ele>
        <time>2022-07-25T21:17:59Z</time>
      </trkpt>
      <trkpt lat="45.94714" lon="3.07866">
        <ele>416</ele>
        <time>2022-07-25T21:18:09Z</time>
      </trkpt>
      <trkpt lat="45.94706" lon="3.07858">
        <ele>417</ele>
        <time>2022-07-25T21:18:10Z</time>
      </trkpt>
      <trkpt lat="45.94667" lon="3.07836">
        <ele>420</ele>
        <time>2022-07-25T21:18:18Z</time>
      </trkpt>
      <trkpt lat="45.94551" lon="3.0778">
        <ele>438</ele>
        <time>2022-07-25T21:18:40Z</time>
      </trkpt>
      <trkpt lat="45.94517" lon="3.07767">
        <ele>444</ele>
        <time>2022-07-25T21:18:46Z</time>
      </trkpt>
      <trkpt lat="45.94504" lon="3.07806">
        <ele>445</ele>
        <time>2022-07-25T21:18:51Z</time>
      </trkpt>
      <trkpt lat="45.94508" lon="3.07905">
        <ele>443</ele>
        <time>2022-07-25T21:19:04Z</time>
      </trkpt>
      <trkpt lat="45.945" lon="3.08012">
        <ele>444</ele>
        <time>2022-07-25T21:19:17Z</time>
      </trkpt>
      <trkpt lat="45.9447" lon="3.08102">
        <ele>445</ele>
        <time>2022-07-25T21:19:29Z</time>
      </trkpt>
      <trkpt lat="45.94414" lon="3.08167">
        <ele>446</ele>
        <time>2022-07-25T21:19:42Z</time>
      </trkpt>
      <trkpt lat="45.94367" lon="3.08201">
        <ele>448</ele>
        <time>2022-07-25T21:19:51Z</time>
      </trkpt>
      <trkpt lat="45.94311" lon="3.08209">
        <ele>450</ele>
        <time>2022-07-25T21:20:01Z</time>
      </trkpt>
      <trkpt lat="45.94268" lon="3.08201">
        <ele>453</ele>
        <time>2022-07-25T21:20:09Z</time>
      </trkpt>
      <trkpt lat="45.94229" lon="3.08184">
        <ele>455</ele>
        <time>2022-07-25T21:20:16Z</time>
      </trkpt>
      <trkpt lat="45.93997" lon="3.07978">
        <ele>467</ele>
        <time>2022-07-25T21:21:05Z</time>
      </trkpt>
      <trkpt lat="45.93959" lon="3.0793">
        <ele>466</ele>
        <time>2022-07-25T21:21:14Z</time>
      </trkpt>
      <trkpt lat="45.93933" lon="3.07888">
        <ele>463</ele>
        <time>2022-07-25T21:21:21Z</time>
      </trkpt>
      <trkpt lat="45.93929" lon="3.07849">
        <ele>463</ele>
        <time>2022-07-25T21:21:26Z</time>
      </trkpt>
      <trkpt lat="45.93929" lon="3.07776">
        <ele>466</ele>
        <time>2022-07-25T21:21:35Z</time>
      </trkpt>
      <trkpt lat="45.93925" lon="3.07755">
        <ele>466</ele>
        <time>2022-07-25T21:21:37Z</time>
      </trkpt>
      <trkpt lat="45.93916" lon="3.07733">
        <ele>465</ele>
        <time>2022-07-25T21:21:41Z</time>
      </trkpt>
      <trkpt lat="45.93903" lon="3.07716">
        <ele>464</ele>
        <time>2022-07-25T21:21:44Z</time>
      </trkpt>
      <trkpt lat="45.93886" lon="3.07703">
        <ele>462</ele>
        <time>2022-07-25T21:21:47Z</time>
      </trkpt>
      <trkpt lat="45.93783" lon="3.07664">
        <ele>452</ele>
        <time>2022-07-25T21:22:06Z</time>
      </trkpt>
      <trkpt lat="45.93564" lon="3.076">
        <ele>441</ele>
        <time>2022-07-25T21:22:46Z</time>
      </trkpt>
      <trkpt lat="45.93555" lon="3.07596">
        <ele>440</ele>
        <time>2022-07-25T21:22:48Z</time>
      </trkpt>
      <trkpt lat="45.93504" lon="3.0754">
        <ele>436</ele>
        <time>2022-07-25T21:22:59Z</time>
      </trkpt>
      <trkpt lat="45.93418" lon="3.07501">
        <ele>429</ele>
        <time>2022-07-25T21:23:15Z</time>
      </trkpt>
      <trkpt lat="45.93401" lon="3.0748">
        <ele>428</ele>
        <time>2022-07-25T21:23:19Z</time>
      </trkpt>
      <trkpt lat="45.93375" lon="3.07433">
        <ele>428</ele>
        <time>2022-07-25T21:23:26Z</time>
      </trkpt>
      <trkpt lat="45.93379" lon="3.07394">
        <ele>429</ele>
        <time>2022-07-25T21:23:31Z</time>
      </trkpt>
      <trkpt lat="45.93379" lon="3.07287">
        <ele>432</ele>
        <time>2022-07-25T21:23:45Z</time>
      </trkpt>
      <trkpt lat="45.93367" lon="3.07102">
        <ele>430</ele>
        <time>2022-07-25T21:24:08Z</time>
      </trkpt>
      <trkpt lat="45.93367" lon="3.07016">
        <ele>430</ele>
        <time>2022-07-25T21:24:18Z</time>
      </trkpt>
      <trkpt lat="45.93354" lon="3.06806">
        <ele>433</ele>
        <time>2022-07-25T21:24:44Z</time>
      </trkpt>
      <trkpt lat="45.93341" lon="3.0678">
        <ele>433</ele>
        <time>2022-07-25T21:24:48Z</time>
      </trkpt>
      <trkpt lat="45.93281" lon="3.0675">
        <ele>430</ele>
        <time>2022-07-25T21:25:00Z</time>
      </trkpt>
      <trkpt lat="45.93238" lon="3.06686">
        <ele>429</ele>
        <time>2022-07-25T21:25:11Z</time>
      </trkpt>
      <trkpt lat="45.93208" lon="3.06622">
        <ele>429</ele>
        <time>2022-07-25T21:25:20Z</time>
      </trkpt>
      <trkpt lat="45.93191" lon="3.06566">
        <ele>430</ele>
        <time>2022-07-25T21:25:28Z</time>
      </trkpt>
      <trkpt lat="45.93156" lon="3.0639">
        <ele>442</ele>
        <time>2022-07-25T21:25:50Z</time>
      </trkpt>
      <trkpt lat="45.93139" lon="3.06265">
        <ele>452</ele>
        <time>2022-07-25T21:26:06Z</time>
      </trkpt>
      <trkpt lat="45.93135" lon="3.06248">
        <ele>453</ele>
        <time>2022-07-25T21:26:08Z</time>
      </trkpt>
      <trkpt lat="45.93122" lon="3.06235">
        <ele>452</ele>
        <time>2022-07-25T21:26:11Z</time>
      </trkpt>
      <trkpt lat="45.93079" lon="3.06334">
        <ele>444</ele>
        <time>2022-07-25T21:26:26Z</time>
      </trkpt>
      <trkpt lat="45.93071" lon="3.06416">
        <ele>444</ele>
        <time>2022-07-25T21:26:36Z</time>
      </trkpt>
      <trkpt lat="45.93058" lon="3.06446">
        <ele>444</ele>
        <time>2022-07-25T21:26:40Z</time>
      </trkpt>
      <trkpt lat="45.93045" lon="3.06467">
        <ele>443</ele>
        <time>2022-07-25T21:26:44Z</time>
      </trkpt>
      <trkpt lat="45.93019" lon="3.06489">
        <ele>443</ele>
        <time>2022-07-25T21:26:49Z</time>
      </trkpt>
      <trkpt lat="45.92869" lon="3.0651">
        <ele>447</ele>
        <time>2022-07-25T21:27:16Z</time>
      </trkpt>
      <trkpt lat="45.92684" lon="3.0654">
        <ele>449</ele>
        <time>2022-07-25T21:27:49Z</time>
      </trkpt>
      <trkpt lat="45.92676" lon="3.06531">
        <ele>449</ele>
        <time>2022-07-25T21:27:51Z</time>
      </trkpt>
      <trkpt lat="45.92663" lon="3.06523">
        <ele>449</ele>
        <time>2022-07-25T21:27:53Z</time>
      </trkpt>
      <trkpt lat="45.92659" lon="3.06527">
        <ele>449</ele>
        <time>2022-07-25T21:27:54Z</time>
      </trkpt>
      <trkpt lat="45.92641" lon="3.0651">
        <ele>450</ele>
        <time>2022-07-25T21:27:58Z</time>
      </trkpt>
      <trkpt lat="45.92611" lon="3.06493">
        <ele>450</ele>
        <time>2022-07-25T21:28:04Z</time>
      </trkpt>
      <trkpt lat="45.92581" lon="3.06484">
        <ele>450</ele>
        <time>2022-07-25T21:28:09Z</time>
      </trkpt>
      <trkpt lat="45.925" lon="3.06497">
        <ele>446</ele>
        <time>2022-07-25T21:28:24Z</time>
      </trkpt>
      <trkpt lat="45.92474" lon="3.06506">
        <ele>445</ele>
        <time>2022-07-25T21:28:28Z</time>
      </trkpt>
      <trkpt lat="45.92474" lon="3.06484">
        <ele>446</ele>
        <time>2022-07-25T21:28:31Z</time>
      </trkpt>
      <trkpt lat="45.92461" lon="3.06476">
        <ele>445</ele>
        <time>2022-07-25T21:28:34Z</time>
      </trkpt>
      <trkpt lat="45.92448" lon="3.06484">
        <ele>445</ele>
        <time>2022-07-25T21:28:36Z</time>
      </trkpt>
      <trkpt lat="45.92418" lon="3.06424">
        <ele>445</ele>
        <time>2022-07-25T21:28:45Z</time>
      </trkpt>
      <trkpt lat="45.92392" lon="3.06394">
        <ele>444</ele>
        <time>2022-07-25T21:28:51Z</time>
      </trkpt>
      <trkpt lat="45.92319" lon="3.06373">
        <ele>438</ele>
        <time>2022-07-25T21:29:05Z</time>
      </trkpt>
      <trkpt lat="45.92294" lon="3.06347">
        <ele>437</ele>
        <time>2022-07-25T21:29:10Z</time>
      </trkpt>
      <trkpt lat="45.92285" lon="3.0633">
        <ele>437</ele>
        <time>2022-07-25T21:29:13Z</time>
      </trkpt>
      <trkpt lat="45.92238" lon="3.06265">
        <ele>437</ele>
        <time>2022-07-25T21:29:24Z</time>
      </trkpt>
      <trkpt lat="45.92195" lon="3.06231">
        <ele>440</ele>
        <time>2022-07-25T21:29:33Z</time>
      </trkpt>
      <trkpt lat="45.92148" lon="3.06188">
        <ele>440</ele>
        <time>2022-07-25T21:29:43Z</time>
      </trkpt>
      <trkpt lat="45.92139" lon="3.06171">
        <ele>440</ele>
        <time>2022-07-25T21:29:46Z</time>
      </trkpt>
      <trkpt lat="45.92131" lon="3.06141">
        <ele>440</ele>
        <time>2022-07-25T21:29:50Z</time>
      </trkpt>
      <trkpt lat="45.92126" lon="3.06089">
        <ele>441</ele>
        <time>2022-07-25T21:29:56Z</time>
      </trkpt>
      <trkpt lat="45.92118" lon="3.06059">
        <ele>441</ele>
        <time>2022-07-25T21:30:00Z</time>
      </trkpt>
      <trkpt lat="45.92066" lon="3.06012">
        <ele>437</ele>
        <time>2022-07-25T21:30:11Z</time>
      </trkpt>
      <trkpt lat="45.92019" lon="3.05999">
        <ele>433</ele>
        <time>2022-07-25T21:30:19Z</time>
      </trkpt>
      <trkpt lat="45.91985" lon="3.05969">
        <ele>432</ele>
        <time>2022-07-25T21:30:27Z</time>
      </trkpt>
      <trkpt lat="45.91929" lon="3.05896">
        <ele>431</ele>
        <time>2022-07-25T21:30:40Z</time>
      </trkpt>
      <trkpt lat="45.91899" lon="3.05853">
        <ele>431</ele>
        <time>2022-07-25T21:30:48Z</time>
      </trkpt>
      <trkpt lat="45.91835" lon="3.05815">
        <ele>429</ele>
        <time>2022-07-25T21:31:00Z</time>
      </trkpt>
      <trkpt lat="45.91762" lon="3.05819">
        <ele>435</ele>
        <time>2022-07-25T21:31:13Z</time>
      </trkpt>
      <trkpt lat="45.91676" lon="3.0575">
        <ele>436</ele>
        <time>2022-07-25T21:31:30Z</time>
      </trkpt>
      <trkpt lat="45.91667" lon="3.05737">
        <ele>437</ele>
        <time>2022-07-25T21:31:33Z</time>
      </trkpt>
      <trkpt lat="45.91646" lon="3.05716">
        <ele>442</ele>
        <time>2022-07-25T21:31:37Z</time>
      </trkpt>
      <trkpt lat="45.91633" lon="3.05682">
        <ele>444</ele>
        <time>2022-07-25T21:31:42Z</time>
      </trkpt>
      <trkpt lat="45.91616" lon="3.05617">
        <ele>446</ele>
        <time>2022-07-25T21:31:51Z</time>
      </trkpt>
      <trkpt lat="45.91599" lon="3.05596">
        <ele>447</ele>
        <time>2022-07-25T21:31:55Z</time>
      </trkpt>
      <trkpt lat="45.91573" lon="3.05574">
        <ele>447</ele>
        <time>2022-07-25T21:32:00Z</time>
      </trkpt>
      <trkpt lat="45.9153" lon="3.05562">
        <ele>450</ele>
        <time>2022-07-25T21:32:08Z</time>
      </trkpt>
      <trkpt lat="45.91504" lon="3.05562">
        <ele>452</ele>
        <time>2022-07-25T21:32:12Z</time>
      </trkpt>
      <trkpt lat="45.91401" lon="3.05609">
        <ele>458</ele>
        <time>2022-07-25T21:32:32Z</time>
      </trkpt>
      <trkpt lat="45.91362" lon="3.05617">
        <ele>459</ele>
        <time>2022-07-25T21:32:39Z</time>
      </trkpt>
      <trkpt lat="45.91324" lon="3.05613">
        <ele>460</ele>
        <time>2022-07-25T21:32:45Z</time>
      </trkpt>
      <trkpt lat="45.9132" lon="3.05604">
        <ele>460</ele>
        <time>2022-07-25T21:32:47Z</time>
      </trkpt>
      <trkpt lat="45.91311" lon="3.056">
        <ele>460</ele>
        <time>2022-07-25T21:32:48Z</time>
      </trkpt>
      <trkpt lat="45.91307" lon="3.05609">
        <ele>460</ele>
        <time>2022-07-25T21:32:50Z</time>
      </trkpt>
      <trkpt lat="45.91307" lon="3.0563">
        <ele>460</ele>
        <time>2022-07-25T21:32:52Z</time>
      </trkpt>
      <trkpt lat="45.91298" lon="3.05634">
        <ele>460</ele>
        <time>2022-07-25T21:32:54Z</time>
      </trkpt>
      <trkpt lat="45.9129" lon="3.05652">
        <ele>459</ele>
        <time>2022-07-25T21:32:57Z</time>
      </trkpt>
      <trkpt lat="45.91268" lon="3.05656">
        <ele>458</ele>
        <time>2022-07-25T21:33:01Z</time>
      </trkpt>
      <trkpt lat="45.91195" lon="3.05634">
        <ele>459</ele>
        <time>2022-07-25T21:33:14Z</time>
      </trkpt>
      <trkpt lat="45.91088" lon="3.05592">
        <ele>460</ele>
        <time>2022-07-25T21:33:34Z</time>
      </trkpt>
      <trkpt lat="45.90882" lon="3.05566">
        <ele>455</ele>
        <time>2022-07-25T21:34:10Z</time>
      </trkpt>
      <trkpt lat="45.90856" lon="3.0557">
        <ele>454</ele>
        <time>2022-07-25T21:34:15Z</time>
      </trkpt>
      <trkpt lat="45.90835" lon="3.05579">
        <ele>453</ele>
        <time>2022-07-25T21:34:19Z</time>
      </trkpt>
      <trkpt lat="45.90693" lon="3.05703">
        <ele>449</ele>
        <time>2022-07-25T21:34:48Z</time>
      </trkpt>
      <trkpt lat="45.90611" lon="3.0578">
        <ele>447</ele>
        <time>2022-07-25T21:35:06Z</time>
      </trkpt>
      <trkpt lat="45.90607" lon="3.05789">
        <ele>447</ele>
        <time>2022-07-25T21:35:07Z</time>
      </trkpt>
      <trkpt lat="45.9059" lon="3.05845">
        <ele>446</ele>
        <time>2022-07-25T21:35:15Z</time>
      </trkpt>
      <trkpt lat="45.9059" lon="3.05901">
        <ele>446</ele>
        <time>2022-07-25T21:35:22Z</time>
      </trkpt>
      <trkpt lat="45.90616" lon="3.06021">
        <ele>444</ele>
        <time>2022-07-25T21:35:37Z</time>
      </trkpt>
      <trkpt lat="45.9065" lon="3.0621">
        <ele>440</ele>
        <time>2022-07-25T21:36:01Z</time>
      </trkpt>
      <trkpt lat="45.90646" lon="3.06252">
        <ele>440</ele>
        <time>2022-07-25T21:36:07Z</time>
      </trkpt>
      <trkpt lat="45.90611" lon="3.06304">
        <ele>442</ele>
        <time>2022-07-25T21:36:16Z</time>
      </trkpt>
      <trkpt lat="45.90556" lon="3.06355">
        <ele>443</ele>
        <time>2022-07-25T21:36:27Z</time>
      </trkpt>
      <trkpt lat="45.90534" lon="3.06386">
        <ele>443</ele>
        <time>2022-07-25T21:36:33Z</time>
      </trkpt>
      <trkpt lat="45.90483" lon="3.06531">
        <ele>438</ele>
        <time>2022-07-25T21:36:53Z</time>
      </trkpt>
      <trkpt lat="45.90466" lon="3.06587">
        <ele>437</ele>
        <time>2022-07-25T21:37:00Z</time>
      </trkpt>
      <trkpt lat="45.90397" lon="3.0687">
        <ele>430</ele>
        <time>2022-07-25T21:37:38Z</time>
      </trkpt>
      <trkpt lat="45.90363" lon="3.07145">
        <ele>423</ele>
        <time>2022-07-25T21:38:12Z</time>
      </trkpt>
      <trkpt lat="45.9035" lon="3.07188">
        <ele>423</ele>
        <time>2022-07-25T21:38:18Z</time>
      </trkpt>
      <trkpt lat="45.90333" lon="3.07214">
        <ele>424</ele>
        <time>2022-07-25T21:38:22Z</time>
      </trkpt>
      <trkpt lat="45.90178" lon="3.07312">
        <ele>417</ele>
        <time>2022-07-25T21:38:53Z</time>
      </trkpt>
      <trkpt lat="45.90088" lon="3.07364">
        <ele>418</ele>
        <time>2022-07-25T21:39:10Z</time>
      </trkpt>
      <trkpt lat="45.90041" lon="3.07385">
        <ele>416</ele>
        <time>2022-07-25T21:39:19Z</time>
      </trkpt>
      <trkpt lat="45.90006" lon="3.0739">
        <ele>414</ele>
        <time>2022-07-25T21:39:25Z</time>
      </trkpt>
      <trkpt lat="45.89968" lon="3.07373">
        <ele>410</ele>
        <time>2022-07-25T21:39:32Z</time>
      </trkpt>
      <trkpt lat="45.89933" lon="3.07347">
        <ele>407</ele>
        <time>2022-07-25T21:39:39Z</time>
      </trkpt>
      <trkpt lat="45.89912" lon="3.073">
        <ele>406</ele>
        <time>2022-07-25T21:39:46Z</time>
      </trkpt>
      <trkpt lat="45.8989" lon="3.07209">
        <ele>403</ele>
        <time>2022-07-25T21:39:58Z</time>
      </trkpt>
      <trkpt lat="45.89895" lon="3.07171">
        <ele>404</ele>
        <time>2022-07-25T21:40:03Z</time>
      </trkpt>
      <trkpt lat="45.89908" lon="3.07137">
        <ele>404</ele>
        <time>2022-07-25T21:40:07Z</time>
      </trkpt>
      <trkpt lat="45.89921" lon="3.07089">
        <ele>403</ele>
        <time>2022-07-25T21:40:14Z</time>
      </trkpt>
      <trkpt lat="45.89921" lon="3.07055">
        <ele>402</ele>
        <time>2022-07-25T21:40:18Z</time>
      </trkpt>
      <trkpt lat="45.89912" lon="3.07025">
        <ele>401</ele>
        <time>2022-07-25T21:40:22Z</time>
      </trkpt>
      <trkpt lat="45.89882" lon="3.06948">
        <ele>400</ele>
        <time>2022-07-25T21:40:33Z</time>
      </trkpt>
      <trkpt lat="45.8986" lon="3.06909">
        <ele>399</ele>
        <time>2022-07-25T21:40:39Z</time>
      </trkpt>
      <trkpt lat="45.89843" lon="3.06892">
        <ele>399</ele>
        <time>2022-07-25T21:40:43Z</time>
      </trkpt>
      <trkpt lat="45.89805" lon="3.06875">
        <ele>397</ele>
        <time>2022-07-25T21:40:50Z</time>
      </trkpt>
      <trkpt lat="45.8977" lon="3.06875">
        <ele>394</ele>
        <time>2022-07-25T21:40:56Z</time>
      </trkpt>
      <trkpt lat="45.89745" lon="3.06892">
        <ele>392</ele>
        <time>2022-07-25T21:41:01Z</time>
      </trkpt>
      <trkpt lat="45.89727" lon="3.06922">
        <ele>391</ele>
        <time>2022-07-25T21:41:06Z</time>
      </trkpt>
      <trkpt lat="45.89667" lon="3.07072">
        <ele>386</ele>
        <time>2022-07-25T21:41:27Z</time>
      </trkpt>
      <trkpt lat="45.8965" lon="3.07145">
        <ele>384</ele>
        <time>2022-07-25T21:41:37Z</time>
      </trkpt>
      <trkpt lat="45.89646" lon="3.0724">
        <ele>382</ele>
        <time>2022-07-25T21:41:49Z</time>
      </trkpt>
      <trkpt lat="45.89623" lon="3.07293">
        <ele>382.8</ele>
      </trkpt>
      <trkpt lat="45.89593" lon="3.07267">
        <ele>383</ele>
      </trkpt>
      <trkpt lat="45.89564" lon="3.07293">
        <ele>382.2</ele>
      </trkpt>
      <trkpt lat="45.89588" lon="3.07345">
        <ele>381.9</ele>
      </trkpt>
      <trkpt lat="45.89599" lon="3.07422">
        <ele>380.4</ele>
      </trkpt>
      <trkpt lat="45.89596" lon="3.07619">
        <ele>378</ele>
      </trkpt>
      <trkpt lat="45.89566" lon="3.07845">
        <ele>375.6</ele>
      </trkpt>
      <trkpt lat="45.89536" lon="3.08106">
        <ele>372.4</ele>
      </trkpt>
      <trkpt lat="45.89534" lon="3.08148">
        <ele>372.1</ele>
      </trkpt>
      <trkpt lat="45.89504" lon="3.08245">
        <ele>371</ele>
      </trkpt>
      <trkpt lat="45.89479" lon="3.08346">
        <ele>370</ele>
      </trkpt>
      <trkpt lat="45.89456" lon="3.08709">
        <ele>366.2</ele>
      </trkpt>
      <trkpt lat="45.89445" lon="3.08893">
        <ele>364</ele>
      </trkpt>
      <trkpt lat="45.89444" lon="3.0898">
        <ele>363</ele>
      </trkpt>
      <trkpt lat="45.89418" lon="3.09122">
        <ele>362.1</ele>
      </trkpt>
      <trkpt lat="45.89402" lon="3.09119">
        <ele>362.1</ele>
      </trkpt>
      <trkpt lat="45.89377" lon="3.09121">
        <ele>362.2</ele>
      </trkpt>
      <trkpt lat="45.89364" lon="3.0915">
        <ele>362.1</ele>
      </trkpt>
      <trkpt lat="45.89355" lon="3.09164">
        <ele>361.8</ele>
      </trkpt>
      <trkpt lat="45.89302" lon="3.09174">
        <ele>359.5</ele>
      </trkpt>
      <trkpt lat="45.89265" lon="3.09192">
        <ele>357.5</ele>
      </trkpt>
      <trkpt lat="45.89214" lon="3.09206">
        <ele>357</ele>
      </trkpt>
      <trkpt lat="45.89109" lon="3.09221">
        <ele>356</ele>
      </trkpt>
      <trkpt lat="45.88983" lon="3.09261">
        <ele>355.9</ele>
      </trkpt>
      <trkpt lat="45.88912" lon="3.09301">
        <ele>358.3</ele>
      </trkpt>
      <trkpt lat="45.88901" lon="3.09311">
        <ele>359.2</ele>
      </trkpt>
      <trkpt lat="45.88894" lon="3.09306">
        <ele>359.7</ele>
      </trkpt>
      <trkpt lat="45.88879" lon="3.09324">
        <ele>360.3</ele>
      </trkpt>
      <trkpt lat="45.88865" lon="3.09352">
        <ele>361</ele>
      </trkpt>
      <trkpt lat="45.88853" lon="3.09361">
        <ele>361</ele>
      </trkpt>
      <trkpt lat="45.88766" lon="3.09363">
        <ele>361.4</ele>
      </trkpt>
      <trkpt lat="45.8864" lon="3.09375">
        <ele>363</ele>
      </trkpt>
      <trkpt lat="45.88485" lon="3.09386">
        <ele>359.6</ele>
      </trkpt>
      <trkpt lat="45.88519" lon="3.09544">
        <ele>360.8</ele>
      </trkpt>
      <trkpt lat="45.88542" lon="3.09786">
        <ele>359.5</ele>
      </trkpt>
      <trkpt lat="45.88577" lon="3.09987">
        <ele>358.2</ele>
      </trkpt>
      <trkpt lat="45.88671" lon="3.1025">
        <ele>357</ele>
      </trkpt>
      <trkpt lat="45.88752" lon="3.10393">
        <ele>356</ele>
      </trkpt>
      <trkpt lat="45.88785" lon="3.10512">
        <ele>355.1</ele>
      </trkpt>
      <trkpt lat="45.88783" lon="3.1053">
        <ele>354.9</ele>
      </trkpt>
      <trkpt lat="45.8879" lon="3.10572">
        <ele>353.8</ele>
      </trkpt>
      <trkpt lat="45.88795" lon="3.10688">
        <ele>350.1</ele>
      </trkpt>
      <trkpt lat="45.88794" lon="3.10793">
        <ele>347.3</ele>
      </trkpt>
      <trkpt lat="45.88791" lon="3.10827">
        <ele>347</ele>
      </trkpt>
      <trkpt lat="45.8875" lon="3.10878">
        <ele>346.6</ele>
      </trkpt>
      <trkpt lat="45.8874" lon="3.10882">
        <ele>346.8</ele>
      </trkpt>
      <trkpt lat="45.88722" lon="3.10901">
        <ele>347</ele>
      </trkpt>
      <trkpt lat="45.8872" lon="3.10908">
        <ele>346.9</ele>
      </trkpt>
      <trkpt lat="45.88746" lon="3.10948">
        <ele>345.9</ele>
      </trkpt>
      <trkpt lat="45.88763" lon="3.10978">
        <ele>344.9</ele>
      </trkpt>
      <trkpt lat="45.88765" lon="3.10987">
        <ele>344.7</ele>
      </trkpt>
      <trkpt lat="45.88752" lon="3.11094">
        <ele>343.6</ele>
      </trkpt>
      <trkpt lat="45.88752" lon="3.11133">
        <ele>343</ele>
      </trkpt>
      <trkpt lat="45.88748" lon="3.11158">
        <ele>343</ele>
      </trkpt>
      <trkpt lat="45.88744" lon="3.11187">
        <ele>343</ele>
      </trkpt>
      <trkpt lat="45.88739" lon="3.1121">
        <ele>343</ele>
      </trkpt>
      <trkpt lat="45.88715" lon="3.11297">
        <ele>343</ele>
      </trkpt>
      <trkpt lat="45.88703" lon="3.11424">
        <ele>341</ele>
      </trkpt>
      <trkpt lat="45.88693" lon="3.11429">
        <ele>341</ele>
      </trkpt>
      <trkpt lat="45.88689" lon="3.11575">
        <ele>341.8</ele>
      </trkpt>
      <trkpt lat="45.88685" lon="3.11684">
        <ele>341.1</ele>
      </trkpt>
      <trkpt lat="45.88681" lon="3.11791">
        <ele>339.5</ele>
      </trkpt>
      <trkpt lat="45.88678" lon="3.11798">
        <ele>339.6</ele>
      </trkpt>
      <trkpt lat="45.88613" lon="3.11796">
        <ele>340.9</ele>
      </trkpt>
      <trkpt lat="45.88594" lon="3.12154">
        <ele>340.8</ele>
      </trkpt>
      <trkpt lat="45.88581" lon="3.12173">
        <ele>341</ele>
      </trkpt>
      <trkpt lat="45.8851" lon="3.12208">
        <ele>338.5</ele>
      </trkpt>
      <trkpt lat="45.88429" lon="3.12331">
        <ele>336</ele>
      </trkpt>
      <trkpt lat="45.88359" lon="3.12431">
        <ele>335</ele>
      </trkpt>
      <trkpt lat="45.88168" lon="3.1269">
        <ele>332.2</ele>
      </trkpt>
      <trkpt lat="45.88174" lon="3.12701">
        <ele>332.4</ele>
      </trkpt>
      <trkpt lat="45.8818" lon="3.12706">
        <ele>332.7</ele>
      </trkpt>
      <trkpt lat="45.88253" lon="3.12726">
        <ele>334</ele>
      </trkpt>
      <trkpt lat="45.88245" lon="3.12804">
        <ele>333</ele>
      </trkpt>
      <trkpt lat="45.88234" lon="3.12882">
        <ele>333</ele>
      </trkpt>
      <trkpt lat="45.88275" lon="3.13025">
        <ele>332</ele>
      </trkpt>
      <trkpt lat="45.88289" lon="3.13039">
        <ele>331.4</ele>
      </trkpt>
      <trkpt lat="45.8836" lon="3.13067">
        <ele>332</ele>
      </trkpt>
      <trkpt lat="45.88378" lon="3.13131">
        <ele>330.7</ele>
      </trkpt>
      <trkpt lat="45.88407" lon="3.13199">
        <ele>331.1</ele>
      </trkpt>
    </trkseg>
  </trk>
</gpx>